Wetterdaten: Sonntag, 14.07.2019
Datum Zeit Temp. Aussen Temp. o. S. +5cm Feuchte Auss Luftdruck Regen Sonnenschein Regendauer Solar Windben Empfang
14.07.2019 00:00 16,3 C 15,6 C 15,0 C 85 % 1019,7 hPa 0,0 l/m 0 min 0 min 0 W/m 6,4 km/h (2 Bft) 97,87 %
14.07.2019 00:02 16,2 C 15,6 C 15,0 C 85 % 1019,7 hPa 0,0 l/m 0 min 0 min 0 W/m 12,9 km/h (3 Bft) 97,14 %
14.07.2019 00:04 16,2 C 15,0 C 15,0 C 85 % 1019,7 hPa 0,0 l/m 0 min 0 min 0 W/m 12,9 km/h (3 Bft) 97,87 %
14.07.2019 00:08 16,2 C 15,0 C 15,0 C 86 % 1019,7 hPa 0,0 l/m 0 min 0 min 0 W/m 9,7 km/h (2 Bft) 97,87 %
14.07.2019 00:10 16,2 C 15,0 C 15,0 C 86 % 1019,8 hPa 0,0 l/m 0 min 0 min 0 W/m 9,7 km/h (2 Bft) 97,87 %
14.07.2019 00:12 16,2 C 15,0 C 15,0 C 86 % 1019,8 hPa 0,0 l/m 0 min 0 min 0 W/m 9,7 km/h (2 Bft) 97,87 %
14.07.2019 00:14 16,2 C 15,0 C 15,0 C 86 % 1019,8 hPa 0,0 l/m 0 min 0 min 0 W/m 6,4 km/h (2 Bft) 95,65 %
14.07.2019 00:16 16,1 C 15,0 C 15,0 C 86 % 1019,8 hPa 0,0 l/m 0 min 0 min 0 W/m 12,9 km/h (3 Bft) 97,87 %
14.07.2019 00:18 16,1 C 15,0 C 15,0 C 86 % 1019,8 hPa 0,0 l/m 0 min 0 min 0 W/m 6,4 km/h (2 Bft) 97,87 %
14.07.2019 00:20 16,1 C 15,0 C 15,0 C 86 % 1019,8 hPa 0,0 l/m 0 min 0 min 0 W/m 12,9 km/h (3 Bft) 100,00 %
14.07.2019 00:22 16,1 C 15,0 C 15,0 C 87 % 1019,9 hPa 0,0 l/m 0 min 0 min 0 W/m 6,4 km/h (2 Bft) 100,00 %
14.07.2019 00:24 16,1 C 15,0 C 15,0 C 87 % 1019,8 hPa 0,0 l/m 0 min 0 min 0 W/m 9,7 km/h (2 Bft) 100,00 %
14.07.2019 00:26 16,1 C 15,0 C 15,0 C 87 % 1019,8 hPa 0,0 l/m 0 min 0 min 0 W/m 9,7 km/h (2 Bft) 100,00 %
14.07.2019 00:28 16,1 C 15,0 C 15,0 C 87 % 1019,8 hPa 0,0 l/m 0 min 0 min 0 W/m 6,4 km/h (2 Bft) 97,87 %
14.07.2019 00:30 16,0 C 15,0 C 15,0 C 87 % 1019,8 hPa 0,0 l/m 0 min 0 min 0 W/m 3,2 km/h (1 Bft) 97,87 %
14.07.2019 00:32 16,0 C 15,0 C 15,0 C 87 % 1019,9 hPa 0,0 l/m 0 min 0 min 0 W/m 6,4 km/h (2 Bft) 100,00 %
14.07.2019 00:34 16,0 C 15,0 C 15,0 C 87 % 1019,9 hPa 0,0 l/m 0 min 0 min 0 W/m 3,2 km/h (1 Bft) 100,00 %
14.07.2019 00:36 16,0 C 15,0 C 14,4 C 87 % 1019,9 hPa 0,0 l/m 0 min 0 min 0 W/m 6,4 km/h (2 Bft) 100,00 %
14.07.2019 00:38 15,9 C 14,4 C 14,4 C 88 % 1019,9 hPa 0,0 l/m 0 min 0 min 0 W/m 12,9 km/h (3 Bft) 95,74 %
14.07.2019 00:40 15,9 C 14,4 C 14,4 C 87 % 1019,9 hPa 0,0 l/m 0 min 0 min 0 W/m 3,2 km/h (1 Bft) 100,00 %
14.07.2019 00:42 15,9 C 14,4 C 14,4 C 88 % 1019,9 hPa 0,0 l/m 0 min 0 min 0 W/m 3,2 km/h (1 Bft) 100,00 %
14.07.2019 00:44 15,9 C 14,4 C 14,4 C 88 % 1019,9 hPa 0,0 l/m 0 min 0 min 0 W/m 9,7 km/h (2 Bft) 100,00 %
14.07.2019 00:46 15,9 C 14,4 C 14,4 C 88 % 1019,9 hPa 0,0 l/m 0 min 0 min 0 W/m 6,4 km/h (2 Bft) 100,00 %
14.07.2019 00:48 15,8 C 14,4 C 14,4 C 88 % 1019,9 hPa 0,0 l/m 0 min 0 min 0 W/m 9,7 km/h (2 Bft) 100,00 %
14.07.2019 00:50 15,8 C 14,4 C 14,4 C 88 % 1019,9 hPa 0,0 l/m 0 min 0 min 0 W/m 3,2 km/h (1 Bft) 100,00 %
14.07.2019 00:52 15,8 C 14,4 C 14,4 C 88 % 1019,9 hPa 0,0 l/m 0 min 0 min 0 W/m 9,7 km/h (2 Bft) 100,00 %
14.07.2019 00:54 15,8 C 14,4 C 14,4 C 88 % 1019,8 hPa 0,0 l/m 0 min 0 min 0 W/m 3,2 km/h (1 Bft) 100,00 %
14.07.2019 00:56 15,8 C 14,4 C 14,4 C 88 % 1019,8 hPa 0,0 l/m 0 min 0 min 0 W/m 3,2 km/h (1 Bft) 97,87 %
14.07.2019 00:58 15,8 C 14,4 C 14,4 C 88 % 1019,8 hPa 0,0 l/m 0 min 0 min 0 W/m 3,2 km/h (1 Bft) 97,87 %
14.07.2019 01:00 15,7 C 14,4 C 14,4 C 89 % 1019,8 hPa 0,0 l/m 0 min 0 min 0 W/m 3,2 km/h (1 Bft) 100,00 %
14.07.2019 01:02 15,7 C 14,4 C 14,4 C 89 % 1019,7 hPa 0,0 l/m 0 min 0 min 0 W/m 0,0 km/h (0 Bft) 100,00 %
14.07.2019 01:04 15,7 C 14,4 C 14,4 C 89 % 1019,7 hPa 0,0 l/m 0 min 0 min 0 W/m 0,0 km/h (0 Bft) 100,00 %
14.07.2019 01:08 15,7 C 14,4 C 14,4 C 89 % 1019,8 hPa 0,0 l/m 0 min 0 min 0 W/m 3,2 km/h (1 Bft) 97,87 %
14.07.2019 01:10 15,7 C 14,4 C 14,4 C 89 % 1019,8 hPa 0,0 l/m 0 min 0 min 0 W/m 6,4 km/h (2 Bft) 100,00 %
14.07.2019 01:12 15,7 C 14,4 C 14,4 C 89 % 1019,8 hPa 0,0 l/m 0 min 0 min 0 W/m 6,4 km/h (2 Bft) 95,65 %
14.07.2019 01:14 15,6 C 14,4 C 14,4 C 88 % 1019,8 hPa 0,0 l/m 0 min 0 min 0 W/m 3,2 km/h (1 Bft) 97,87 %
14.07.2019 01:16 15,6 C 14,4 C 14,4 C 88 % 1019,7 hPa 0,0 l/m 0 min 0 min 0 W/m 6,4 km/h (2 Bft) 97,87 %
14.07.2019 01:18 15,6 C 14,4 C 14,4 C 88 % 1019,7 hPa 0,0 l/m 0 min 0 min 0 W/m 3,2 km/h (1 Bft) 100,00 %
14.07.2019 01:20 15,6 C 14,4 C 14,4 C 88 % 1019,7 hPa 0,0 l/m 0 min 0 min 0 W/m 3,2 km/h (1 Bft) 100,00 %
14.07.2019 01:22 15,6 C 14,4 C 14,4 C 88 % 1019,7 hPa 0,0 l/m 0 min 0 min 0 W/m 6,4 km/h (2 Bft) 97,83 %
14.07.2019 01:24 15,5 C 14,4 C 14,4 C 88 % 1019,7 hPa 0,0 l/m 0 min 0 min 0 W/m 3,2 km/h (1 Bft) 97,87 %
14.07.2019 01:26 15,5 C 14,4 C 14,4 C 88 % 1019,7 hPa 0,0 l/m 0 min 0 min 0 W/m 6,4 km/h (2 Bft) 97,87 %
14.07.2019 01:28 15,5 C 14,4 C 14,4 C 88 % 1019,7 hPa 0,0 l/m 0 min 0 min 0 W/m 3,2 km/h (1 Bft) 97,87 %
14.07.2019 01:30 15,5 C 14,4 C 14,4 C 88 % 1019,6 hPa 0,0 l/m 0 min 0 min 0 W/m 6,4 km/h (2 Bft) 97,87 %
14.07.2019 01:32 15,5 C 14,4 C 14,4 C 88 % 1019,6 hPa 0,0 l/m 0 min 0 min 0 W/m 6,4 km/h (2 Bft) 97,87 %
14.07.2019 01:34 15,4 C 14,4 C 14,4 C 88 % 1019,6 hPa 0,0 l/m 0 min 0 min 0 W/m 3,2 km/h (1 Bft) 97,83 %
14.07.2019 01:36 15,4 C 14,4 C 14,4 C 88 % 1019,6 hPa 0,0 l/m 0 min 0 min 0 W/m 6,4 km/h (2 Bft) 97,87 %
14.07.2019 01:38 15,4 C 14,4 C 14,4 C 88 % 1019,6 hPa 0,0 l/m 0 min 0 min 0 W/m 6,4 km/h (2 Bft) 97,87 %
14.07.2019 01:40 15,4 C 14,4 C 14,4 C 88 % 1019,6 hPa 0,0 l/m 0 min 0 min 0 W/m 3,2 km/h (1 Bft) 95,74 %
14.07.2019 01:42 15,4 C 14,4 C 14,4 C 88 % 1019,5 hPa 0,0 l/m 0 min 0 min 0 W/m 3,2 km/h (1 Bft) 97,87 %
14.07.2019 01:44 15,4 C 14,4 C 14,4 C 88 % 1019,6 hPa 0,0 l/m 0 min 0 min 0 W/m 6,4 km/h (2 Bft) 97,87 %
14.07.2019 01:46 15,4 C 14,4 C 14,4 C 88 % 1019,6 hPa 0,0 l/m 0 min 0 min 0 W/m 6,4 km/h (2 Bft) 95,65 %
14.07.2019 01:48 15,4 C 14,4 C 14,4 C 88 % 1019,6 hPa 0,0 l/m 0 min 0 min 0 W/m 6,4 km/h (2 Bft) 89,36 %
14.07.2019 01:50 15,4 C 14,4 C 14,4 C 88 % 1019,5 hPa 0,0 l/m 0 min 0 min 0 W/m 3,2 km/h (1 Bft) 93,62 %
14.07.2019 01:52 15,4 C 14,4 C 14,4 C 88 % 1019,5 hPa 0,0 l/m 0 min 0 min 0 W/m 3,2 km/h (1 Bft) 95,74 %
14.07.2019 01:54 15,4 C 14,4 C 14,4 C 88 % 1019,5 hPa 0,0 l/m 0 min 0 min 0 W/m 3,2 km/h (1 Bft) 95,74 %
14.07.2019 01:56 15,3 C 14,4 C 14,4 C 88 % 1019,5 hPa 0,0 l/m 0 min 0 min 0 W/m 3,2 km/h (1 Bft) 95,74 %
14.07.2019 01:58 15,3 C 14,4 C 14,4 C 88 % 1019,5 hPa 0,0 l/m 0 min 0 min 0 W/m 3,2 km/h (1 Bft) 95,65 %
14.07.2019 02:00 15,3 C 14,4 C 14,4 C 88 % 1019,5 hPa 0,0 l/m 0 min 0 min 0 W/m 9,7 km/h (2 Bft) 95,74 %
14.07.2019 02:02 15,3 C 14,4 C 14,4 C 88 % 1019,6 hPa 0,0 l/m 0 min 0 min 0 W/m 6,4 km/h (2 Bft) 93,62 %
14.07.2019 02:04 15,3 C 14,4 C 14,4 C 88 % 1019,6 hPa 0,0 l/m 0 min 0 min 0 W/m 3,2 km/h (1 Bft) 95,74 %
14.07.2019 02:08 15,3 C 14,4 C 14,4 C 87 % 1019,6 hPa 0,0 l/m 0 min 0 min 0 W/m 6,4 km/h (2 Bft) 94,68 %
14.07.2019 02:10 15,2 C 14,4 C 14,4 C 87 % 1019,6 hPa 0,0 l/m 0 min 0 min 0 W/m 12,9 km/h (3 Bft) 93,48 %
14.07.2019 02:12 15,2 C 14,4 C 14,4 C 86 % 1019,6 hPa 0,0 l/m 0 min 0 min 0 W/m 6,4 km/h (2 Bft) 95,74 %
14.07.2019 02:14 15,2 C 14,4 C 14,4 C 86 % 1019,6 hPa 0,0 l/m 0 min 0 min 0 W/m 3,2 km/h (1 Bft) 95,74 %
14.07.2019 02:16 15,2 C 14,4 C 14,4 C 86 % 1019,6 hPa 0,0 l/m 0 min 0 min 0 W/m 3,2 km/h (1 Bft) 95,74 %
14.07.2019 02:18 15,2 C 14,4 C 14,4 C 86 % 1019,6 hPa 0,0 l/m 0 min 0 min 0 W/m 6,4 km/h (2 Bft) 97,87 %
14.07.2019 02:20 15,2 C 14,4 C 14,4 C 86 % 1019,7 hPa 0,0 l/m 0 min 0 min 0 W/m 6,4 km/h (2 Bft) 97,87 %
14.07.2019 02:22 15,2 C 14,4 C 14,4 C 85 % 1019,6 hPa 0,0 l/m 0 min 0 min 0 W/m 3,2 km/h (1 Bft) 97,83 %
14.07.2019 02:24 15,2 C 14,4 C 13,9 C 85 % 1019,6 hPa 0,0 l/m 0 min 0 min 0 W/m 6,4 km/h (2 Bft) 95,74 %
14.07.2019 02:26 15,1 C 14,4 C 13,9 C 85 % 1019,6 hPa 0,0 l/m 0 min 0 min 0 W/m 12,9 km/h (3 Bft) 97,87 %
14.07.2019 02:28 15,1 C 14,4 C 14,4 C 84 % 1019,6 hPa 0,0 l/m 0 min 0 min 0 W/m 12,9 km/h (3 Bft) 97,87 %
14.07.2019 02:30 15,1 C 14,4 C 14,4 C 84 % 1019,6 hPa 0,0 l/m 0 min 0 min 0 W/m 6,4 km/h (2 Bft) 97,87 %
14.07.2019 02:32 15,1 C 14,4 C 13,9 C 83 % 1019,6 hPa 0,0 l/m 0 min 0 min 0 W/m 12,9 km/h (3 Bft) 100,00 %
14.07.2019 02:34 15,1 C 14,4 C 13,9 C 83 % 1019,6 hPa 0,0 l/m 0 min 0 min 0 W/m 6,4 km/h (2 Bft) 100,00 %
14.07.2019 02:36 15,1 C 14,4 C 13,9 C 82 % 1019,6 hPa 0,0 l/m 0 min 0 min 0 W/m 6,4 km/h (2 Bft) 97,87 %
14.07.2019 02:38 15,1 C 14,4 C 13,9 C 82 % 1019,6 hPa 0,0 l/m 0 min 0 min 0 W/m 22,5 km/h (4 Bft) 100,00 %
14.07.2019 02:40 15,1 C 14,4 C 13,9 C 82 % 1019,5 hPa 0,0 l/m 0 min 0 min 0 W/m 6,4 km/h (2 Bft) 100,00 %
14.07.2019 02:42 15,1 C 14,4 C 13,9 C 82 % 1019,6 hPa 0,0 l/m 0 min 0 min 0 W/m 6,4 km/h (2 Bft) 100,00 %
14.07.2019 02:44 15,1 C 14,4 C 13,9 C 82 % 1019,5 hPa 0,0 l/m 0 min 0 min 0 W/m 6,4 km/h (2 Bft) 95,65 %
14.07.2019 02:46 15,1 C 14,4 C 13,9 C 82 % 1019,5 hPa 0,0 l/m 0 min 0 min 0 W/m 6,4 km/h (2 Bft) 100,00 %
14.07.2019 02:48 15,1 C 14,4 C 13,9 C 81 % 1019,5 hPa 0,0 l/m 0 min 0 min 0 W/m 3,2 km/h (1 Bft) 100,00 %
14.07.2019 02:50 15,1 C 14,4 C 13,9 C 81 % 1019,5 hPa 0,0 l/m 0 min 0 min 0 W/m 6,4 km/h (2 Bft) 100,00 %
14.07.2019 02:52 15,1 C 14,4 C 13,9 C 81 % 1019,6 hPa 0,0 l/m 0 min 0 min 0 W/m 6,4 km/h (2 Bft) 97,87 %
14.07.2019 02:54 15,1 C 14,4 C 13,9 C 81 % 1019,5 hPa 0,0 l/m 0 min 0 min 0 W/m 6,4 km/h (2 Bft) 95,74 %
14.07.2019 02:56 15,1 C 14,4 C 13,9 C 81 % 1019,5 hPa 0,0 l/m 0 min 0 min 0 W/m 9,7 km/h (2 Bft) 97,83 %
14.07.2019 02:58 15,1 C 14,4 C 13,9 C 81 % 1019,5 hPa 0,0 l/m 0 min 0 min 0 W/m 9,7 km/h (2 Bft) 100,00 %
14.07.2019 03:00 15,1 C 14,4 C 13,9 C 81 % 1019,4 hPa 0,0 l/m 0 min 0 min 0 W/m 9,7 km/h (2 Bft) 97,87 %
14.07.2019 03:02 15,1 C 14,4 C 13,9 C 81 % 1019,4 hPa 0,0 l/m 0 min 0 min 0 W/m 3,2 km/h (1 Bft) 97,87 %
14.07.2019 03:04 15,1 C 14,4 C 13,9 C 81 % 1019,5 hPa 0,0 l/m 0 min 0 min 0 W/m 3,2 km/h (1 Bft) 95,74 %
14.07.2019 03:08 15,1 C 14,4 C 13,9 C 82 % 1019,5 hPa 0,0 l/m 0 min 0 min 0 W/m 9,7 km/h (2 Bft) 96,77 %
14.07.2019 03:10 15,1 C 14,4 C 13,9 C 82 % 1019,5 hPa 0,0 l/m 0 min 0 min 0 W/m 9,7 km/h (2 Bft) 97,87 %
14.07.2019 03:12 15,1 C 14,4 C 13,9 C 82 % 1019,5 hPa 0,0 l/m 0 min 0 min 0 W/m 9,7 km/h (2 Bft) 97,87 %
14.07.2019 03:14 15,1 C 14,4 C 13,9 C 82 % 1019,5 hPa 0,0 l/m 0 min 0 min 0 W/m 6,4 km/h (2 Bft) 97,87 %
14.07.2019 03:16 15,1 C 14,4 C 13,9 C 82 % 1019,5 hPa 0,0 l/m 0 min 0 min 0 W/m 6,4 km/h (2 Bft) 97,87 %
14.07.2019 03:18 15,1 C 14,4 C 13,9 C 82 % 1019,5 hPa 0,0 l/m 0 min 0 min 0 W/m 6,4 km/h (2 Bft) 97,87 %
14.07.2019 03:20 15,1 C 14,4 C 13,9 C 82 % 1019,5 hPa 0,0 l/m 0 min 0 min 0 W/m 9,7 km/h (2 Bft) 97,83 %
14.07.2019 03:22 15,1 C 14,4 C 13,9 C 81 % 1019,5 hPa 0,0 l/m 0 min 0 min 0 W/m 6,4 km/h (2 Bft) 95,74 %
14.07.2019 03:24 15,1 C 14,4 C 13,9 C 81 % 1019,5 hPa 0,0 l/m 0 min 0 min 0 W/m 9,7 km/h (2 Bft) 95,74 %
14.07.2019 03:26 15,1 C 14,4 C 13,9 C 81 % 1019,5 hPa 0,0 l/m 0 min 0 min 0 W/m 6,4 km/h (2 Bft) 95,74 %
14.07.2019 03:28 15,1 C 14,4 C 13,9 C 81 % 1019,5 hPa 0,0 l/m 0 min 0 min 0 W/m 3,2 km/h (1 Bft) 97,87 %
14.07.2019 03:30 15,1 C 14,4 C 13,9 C 80 % 1019,5 hPa 0,0 l/m 0 min 0 min 0 W/m 6,4 km/h (2 Bft) 97,87 %
14.07.2019 03:32 15,1 C 14,4 C 13,9 C 80 % 1019,5 hPa 0,0 l/m 0 min 0 min 0 W/m 6,4 km/h (2 Bft) 97,83 %
14.07.2019 03:34 15,1 C 14,4 C 13,9 C 80 % 1019,5 hPa 0,0 l/m 0 min 0 min 0 W/m 3,2 km/h (1 Bft) 97,87 %
14.07.2019 03:36 15,1 C 14,4 C 13,9 C 80 % 1019,5 hPa 0,0 l/m 0 min 0 min 0 W/m 9,7 km/h (2 Bft) 97,87 %
14.07.2019 03:38 15,1 C 14,4 C 13,9 C 80 % 1019,5 hPa 0,0 l/m 0 min 0 min 0 W/m 9,7 km/h (2 Bft) 95,74 %
14.07.2019 03:40 15,1 C 14,4 C 13,9 C 80 % 1019,5 hPa 0,0 l/m 0 min 0 min 0 W/m 12,9 km/h (3 Bft) 97,87 %
14.07.2019 03:42 15,0 C 14,4 C 13,9 C 80 % 1019,5 hPa 0,0 l/m 0 min 0 min 0 W/m 6,4 km/h (2 Bft) 97,83 %
14.07.2019 03:44 15,1 C 14,4 C 13,9 C 80 % 1019,5 hPa 0,0 l/m 0 min 0 min 0 W/m 3,2 km/h (1 Bft) 97,87 %
14.07.2019 03:46 15,1 C 14,4 C 13,9 C 80 % 1019,5 hPa 0,0 l/m 0 min 0 min 0 W/m 3,2 km/h (1 Bft) 97,87 %
14.07.2019 03:48 15,1 C 14,4 C 13,9 C 80 % 1019,5 hPa 0,0 l/m 0 min 0 min 0 W/m 9,7 km/h (2 Bft) 97,87 %
14.07.2019 03:50 15,1 C 14,4 C 13,9 C 80 % 1019,4 hPa 0,0 l/m 0 min 0 min 0 W/m 12,9 km/h (3 Bft) 97,87 %
14.07.2019 03:52 15,1 C 14,4 C 13,9 C 81 % 1019,4 hPa 0,0 l/m 0 min 0 min 0 W/m 6,4 km/h (2 Bft) 97,87 %
14.07.2019 03:54 15,1 C 14,4 C 13,9 C 81 % 1019,4 hPa 0,0 l/m 0 min 0 min 0 W/m 3,2 km/h (1 Bft) 97,83 %
14.07.2019 03:56 15,1 C 13,9 C 13,9 C 81 % 1019,4 hPa 0,0 l/m 0 min 0 min 0 W/m 9,7 km/h (2 Bft) 100,00 %
14.07.2019 03:58 15,1 C 13,9 C 13,9 C 82 % 1019,4 hPa 0,0 l/m 0 min 0 min 0 W/m 9,7 km/h (2 Bft) 100,00 %
14.07.2019 04:00 15,1 C 13,9 C 13,9 C 82 % 1019,5 hPa 0,0 l/m 0 min 0 min 0 W/m 6,4 km/h (2 Bft) 97,87 %
14.07.2019 04:02 15,0 C 13,9 C 13,9 C 82 % 1019,4 hPa 0,0 l/m 0 min 0 min 0 W/m 6,4 km/h (2 Bft) 96,97 %
14.07.2019 04:04 15,0 C 13,9 C 13,9 C 82 % 1019,5 hPa 0,0 l/m 0 min 0 min 0 W/m 9,7 km/h (2 Bft) 97,87 %
14.07.2019 04:08 14,9 C 13,9 C 13,9 C 81 % 1019,4 hPa 0,0 l/m 0 min 0 min 0 W/m 6,4 km/h (2 Bft) 100,00 %
14.07.2019 04:10 14,9 C 13,9 C 13,9 C 81 % 1019,5 hPa 0,0 l/m 0 min 0 min 0 W/m 6,4 km/h (2 Bft) 95,74 %
14.07.2019 04:12 14,9 C 13,9 C 13,9 C 81 % 1019,5 hPa 0,0 l/m 0 min 0 min 0 W/m 6,4 km/h (2 Bft) 97,87 %
14.07.2019 04:14 14,9 C 13,9 C 13,9 C 81 % 1019,4 hPa 0,0 l/m 0 min 0 min 0 W/m 6,4 km/h (2 Bft) 100,00 %
14.07.2019 04:16 14,9 C 13,9 C 13,9 C 81 % 1019,4 hPa 0,0 l/m 0 min 0 min 0 W/m 6,4 km/h (2 Bft) 93,62 %
14.07.2019 04:18 14,8 C 13,9 C 13,9 C 81 % 1019,4 hPa 0,0 l/m 0 min 0 min 0 W/m 6,4 km/h (2 Bft) 97,83 %
14.07.2019 04:20 14,8 C 13,9 C 13,9 C 80 % 1019,5 hPa 0,0 l/m 0 min 0 min 0 W/m 6,4 km/h (2 Bft) 95,74 %
14.07.2019 04:22 14,8 C 13,9 C 13,9 C 80 % 1019,4 hPa 0,0 l/m 0 min 0 min 0 W/m 9,7 km/h (2 Bft) 97,87 %
14.07.2019 04:24 14,8 C 13,9 C 13,9 C 80 % 1019,5 hPa 0,0 l/m 0 min 0 min 0 W/m 9,7 km/h (2 Bft) 97,87 %
14.07.2019 04:26 14,7 C 13,9 C 13,9 C 80 % 1019,4 hPa 0,0 l/m 0 min 0 min 0 W/m 19,3 km/h (3 Bft) 95,74 %
14.07.2019 04:28 14,7 C 13,9 C 13,3 C 79 % 1019,5 hPa 0,0 l/m 0 min 0 min 0 W/m 9,7 km/h (2 Bft) 97,87 %
14.07.2019 04:30 14,7 C 13,9 C 13,3 C 79 % 1019,4 hPa 0,0 l/m 0 min 0 min 0 W/m 6,4 km/h (2 Bft) 95,65 %
14.07.2019 04:32 14,6 C 13,9 C 13,3 C 78 % 1019,4 hPa 0,0 l/m 0 min 0 min 0 W/m 12,9 km/h (3 Bft) 93,62 %
14.07.2019 04:34 14,6 C 13,9 C 13,3 C 78 % 1019,5 hPa 0,0 l/m 0 min 0 min 0 W/m 12,9 km/h (3 Bft) 95,74 %
14.07.2019 04:36 14,6 C 13,9 C 13,3 C 78 % 1019,5 hPa 0,0 l/m 0 min 0 min 0 W/m 9,7 km/h (2 Bft) 95,74 %
14.07.2019 04:38 14,5 C 13,9 C 13,3 C 77 % 1019,6 hPa 0,0 l/m 0 min 0 min 0 W/m 9,7 km/h (2 Bft) 95,74 %
14.07.2019 04:40 14,5 C 13,9 C 13,3 C 77 % 1019,6 hPa 0,0 l/m 0 min 0 min 0 W/m 12,9 km/h (3 Bft) 95,65 %
14.07.2019 04:42 14,4 C 13,3 C 13,3 C 77 % 1019,6 hPa 0,0 l/m 0 min 0 min 0 W/m 16,1 km/h (3 Bft) 95,74 %
14.07.2019 04:44 14,4 C 13,3 C 13,3 C 77 % 1019,6 hPa 0,0 l/m 0 min 0 min 0 W/m 6,4 km/h (2 Bft) 93,62 %
14.07.2019 04:46 14,4 C 13,3 C 13,3 C 77 % 1019,6 hPa 0,0 l/m 0 min 0 min 0 W/m 6,4 km/h (2 Bft) 95,74 %
14.07.2019 04:48 14,4 C 13,3 C 13,3 C 77 % 1019,5 hPa 0,0 l/m 0 min 0 min 0 W/m 16,1 km/h (3 Bft) 95,74 %
14.07.2019 04:50 14,4 C 13,3 C 13,3 C 77 % 1019,5 hPa 0,0 l/m 0 min 0 min 0 W/m 9,7 km/h (2 Bft) 95,74 %
14.07.2019 04:52 14,4 C 13,3 C 13,3 C 77 % 1019,5 hPa 0,0 l/m 0 min 0 min 0 W/m 6,4 km/h (2 Bft) 95,74 %
14.07.2019 04:54 14,3 C 13,3 C 13,3 C 77 % 1019,5 hPa 0,0 l/m 0 min 0 min 0 W/m 6,4 km/h (2 Bft) 95,65 %
14.07.2019 04:56 14,3 C 13,3 C 12,8 C 77 % 1019,5 hPa 0,0 l/m 0 min 0 min 0 W/m 3,2 km/h (1 Bft) 93,62 %
14.07.2019 04:58 14,3 C 13,3 C 12,8 C 78 % 1019,6 hPa 0,0 l/m 0 min 0 min 0 W/m 6,4 km/h (2 Bft) 95,74 %
14.07.2019 05:00 14,3 C 13,3 C 12,8 C 78 % 1019,5 hPa 0,0 l/m 0 min 0 min 0 W/m 6,4 km/h (2 Bft) 93,62 %
14.07.2019 05:02 14,2 C 13,3 C 12,8 C 78 % 1019,5 hPa 0,0 l/m 0 min 0 min 0 W/m 6,4 km/h (2 Bft) 93,62 %
14.07.2019 05:04 14,2 C 12,8 C 12,8 C 78 % 1019,5 hPa 0,0 l/m 0 min 0 min 0 W/m 6,4 km/h (2 Bft) 95,74 %
14.07.2019 05:08 14,2 C 12,8 C 12,8 C 78 % 1019,5 hPa 0,0 l/m 0 min 0 min 0 W/m 3,2 km/h (1 Bft) 96,77 %
14.07.2019 05:10 14,2 C 12,8 C 12,8 C 78 % 1019,5 hPa 0,0 l/m 0 min 0 min 0 W/m 9,7 km/h (2 Bft) 95,74 %
14.07.2019 05:12 14,2 C 12,8 C 12,8 C 78 % 1019,5 hPa 0,0 l/m 0 min 0 min 0 W/m 9,7 km/h (2 Bft) 97,87 %
14.07.2019 05:14 14,2 C 12,8 C 12,8 C 78 % 1019,5 hPa 0,0 l/m 0 min 0 min 0 W/m 9,7 km/h (2 Bft) 97,87 %
14.07.2019 05:16 14,2 C 12,8 C 12,8 C 78 % 1019,5 hPa 0,0 l/m 0 min 0 min 0 W/m 6,4 km/h (2 Bft) 95,65 %
14.07.2019 05:18 14,2 C 12,8 C 12,2 C 78 % 1019,4 hPa 0,0 l/m 0 min 0 min 0 W/m 12,9 km/h (3 Bft) 95,74 %
14.07.2019 05:20 14,1 C 12,8 C 12,2 C 78 % 1019,5 hPa 0,0 l/m 0 min 0 min 0 W/m 16,1 km/h (3 Bft) 100,00 %
14.07.2019 05:22 14,0 C 12,2 C 12,2 C 78 % 1019,5 hPa 0,0 l/m 0 min 0 min 0 W/m 3,2 km/h (1 Bft) 97,87 %
14.07.2019 05:24 14,0 C 12,2 C 12,2 C 78 % 1019,4 hPa 0,0 l/m 0 min 0 min 0 W/m 6,4 km/h (2 Bft) 100,00 %
14.07.2019 05:26 13,9 C 12,2 C 12,2 C 79 % 1019,4 hPa 0,0 l/m 0 min 0 min 0 W/m 3,2 km/h (1 Bft) 95,74 %
14.07.2019 05:28 13,9 C 12,2 C 12,2 C 79 % 1019,4 hPa 0,0 l/m 0 min 0 min 0 W/m 6,4 km/h (2 Bft) 100,00 %
14.07.2019 05:30 13,8 C 12,2 C 12,2 C 79 % 1019,4 hPa 0,0 l/m 0 min 0 min 0 W/m 6,4 km/h (2 Bft) 100,00 %
14.07.2019 05:32 13,8 C 12,2 C 12,2 C 79 % 1019,4 hPa 0,0 l/m 0 min 0 min 0 W/m 6,4 km/h (2 Bft) 97,87 %
14.07.2019 05:34 13,8 C 12,2 C 12,2 C 79 % 1019,4 hPa 0,0 l/m 0 min 0 min 0 W/m 9,7 km/h (2 Bft) 100,00 %
14.07.2019 05:36 13,7 C 12,2 C 12,2 C 79 % 1019,4 hPa 0,0 l/m 0 min 0 min 0 W/m 3,2 km/h (1 Bft) 100,00 %
14.07.2019 05:38 13,7 C 12,2 C 12,2 C 79 % 1019,4 hPa 0,0 l/m 0 min 0 min 0 W/m 3,2 km/h (1 Bft) 100,00 %
14.07.2019 05:40 13,7 C 12,2 C 12,2 C 79 % 1019,4 hPa 0,0 l/m 0 min 0 min 0 W/m 6,4 km/h (2 Bft) 97,83 %
14.07.2019 05:42 13,6 C 12,2 C 12,2 C 79 % 1019,4 hPa 0,0 l/m 0 min 0 min 5 W/m 6,4 km/h (2 Bft) 100,00 %
14.07.2019 05:44 13,6 C 12,2 C 12,2 C 79 % 1019,4 hPa 0,0 l/m 0 min 0 min 5 W/m 6,4 km/h (2 Bft) 100,00 %
14.07.2019 05:46 13,6 C 12,2 C 12,2 C 79 % 1019,4 hPa 0,0 l/m 0 min 0 min 5 W/m 3,2 km/h (1 Bft) 100,00 %
14.07.2019 05:48 13,6 C 12,2 C 12,2 C 79 % 1019,3 hPa 0,0 l/m 0 min 0 min 7 W/m 3,2 km/h (1 Bft) 100,00 %
14.07.2019 05:50 13,6 C 12,2 C 12,2 C 79 % 1019,3 hPa 0,0 l/m 0 min 0 min 7 W/m 9,7 km/h (2 Bft) 97,87 %
14.07.2019 05:52 13,5 C 12,8 C 12,2 C 79 % 1019,4 hPa 0,0 l/m 0 min 0 min 8 W/m 6,4 km/h (2 Bft) 97,83 %
14.07.2019 05:54 13,5 C 12,8 C 12,2 C 79 % 1019,4 hPa 0,0 l/m 0 min 0 min 9 W/m 0,0 km/h (0 Bft) 100,00 %
14.07.2019 05:56 13,5 C 12,8 C 12,8 C 80 % 1019,4 hPa 0,0 l/m 0 min 0 min 9 W/m 6,4 km/h (2 Bft) 100,00 %
14.07.2019 05:58 13,5 C 12,8 C 12,8 C 80 % 1019,4 hPa 0,0 l/m 0 min 0 min 9 W/m 3,2 km/h (1 Bft) 97,87 %
14.07.2019 06:00 13,5 C 12,8 C 12,8 C 80 % 1019,4 hPa 0,0 l/m 0 min 0 min 9 W/m 3,2 km/h (1 Bft) 100,00 %
14.07.2019 06:02 13,5 C 12,8 C 12,8 C 80 % 1019,5 hPa 0,0 l/m 0 min 0 min 9 W/m 12,9 km/h (3 Bft) 100,00 %
14.07.2019 06:04 13,5 C 13,3 C 12,8 C 80 % 1019,5 hPa 0,0 l/m 0 min 0 min 9 W/m 6,4 km/h (2 Bft) 97,87 %
14.07.2019 06:08 13,6 C 13,3 C 12,8 C 80 % 1019,4 hPa 0,0 l/m 0 min 0 min 11 W/m 9,7 km/h (2 Bft) 100,00 %
14.07.2019 06:10 13,6 C 13,3 C 12,8 C 80 % 1019,5 hPa 0,0 l/m 0 min 0 min 11 W/m 6,4 km/h (2 Bft) 100,00 %
14.07.2019 06:12 13,7 C 13,3 C 12,8 C 80 % 1019,5 hPa 0,0 l/m 0 min 0 min 12 W/m 6,4 km/h (2 Bft) 97,87 %
14.07.2019 06:14 13,7 C 13,3 C 12,8 C 80 % 1019,5 hPa 0,0 l/m 0 min 0 min 12 W/m 6,4 km/h (2 Bft) 100,00 %
14.07.2019 06:16 13,7 C 13,3 C 12,8 C 80 % 1019,6 hPa 0,0 l/m 0 min 0 min 12 W/m 6,4 km/h (2 Bft) 100,00 %
14.07.2019 06:18 13,7 C 13,3 C 12,8 C 80 % 1019,6 hPa 0,0 l/m 0 min 0 min 14 W/m 3,2 km/h (1 Bft) 100,00 %
14.07.2019 06:20 13,7 C 13,3 C 12,8 C 80 % 1019,6 hPa 0,0 l/m 0 min 0 min 17 W/m 0,0 km/h (0 Bft) 100,00 %
14.07.2019 06:22 13,7 C 13,3 C 12,8 C 80 % 1019,6 hPa 0,0 l/m 0 min 0 min 19 W/m 3,2 km/h (1 Bft) 100,00 %
14.07.2019 06:24 13,7 C 13,3 C 13,3 C 80 % 1019,5 hPa 0,0 l/m 0 min 0 min 19 W/m 3,2 km/h (1 Bft) 100,00 %
14.07.2019 06:26 13,8 C 13,3 C 13,3 C 80 % 1019,5 hPa 0,0 l/m 0 min 0 min 19 W/m 6,4 km/h (2 Bft) 100,00 %
14.07.2019 06:28 13,8 C 13,3 C 13,3 C 80 % 1019,5 hPa 0,0 l/m 0 min 0 min 20 W/m 9,7 km/h (2 Bft) 95,74 %
14.07.2019 06:30 13,8 C 13,3 C 13,3 C 80 % 1019,5 hPa 0,0 l/m 0 min 0 min 22 W/m 6,4 km/h (2 Bft) 100,00 %
14.07.2019 06:32 13,8 C 13,3 C 13,3 C 80 % 1019,5 hPa 0,0 l/m 0 min 0 min 25 W/m 6,4 km/h (2 Bft) 97,87 %
14.07.2019 06:34 13,8 C 13,3 C 13,3 C 80 % 1019,5 hPa 0,0 l/m 0 min 0 min 25 W/m 3,2 km/h (1 Bft) 97,87 %
14.07.2019 06:36 13,8 C 13,3 C 13,3 C 80 % 1019,5 hPa 0,0 l/m 0 min 0 min 25 W/m 3,2 km/h (1 Bft) 97,87 %
14.07.2019 06:38 13,9 C 13,3 C 13,3 C 81 % 1019,4 hPa 0,0 l/m 0 min 0 min 23 W/m 3,2 km/h (1 Bft) 95,65 %
14.07.2019 06:40 13,9 C 13,3 C 13,3 C 81 % 1019,3 hPa 0,0 l/m 0 min 0 min 23 W/m 0,0 km/h (0 Bft) 97,87 %
14.07.2019 06:42 13,9 C 13,9 C 13,3 C 80 % 1019,4 hPa 0,0 l/m 0 min 0 min 25 W/m 0,0 km/h (0 Bft) 97,87 %
14.07.2019 06:44 13,9 C 13,9 C 13,3 C 80 % 1019,4 hPa 0,0 l/m 0 min 0 min 26 W/m 0,0 km/h (0 Bft) 97,87 %
14.07.2019 06:46 13,9 C 13,9 C 13,3 C 80 % 1019,3 hPa 0,0 l/m 0 min 0 min 26 W/m 0,0 km/h (0 Bft) 97,87 %
14.07.2019 06:48 13,9 C 13,9 C 13,3 C 80 % 1019,3 hPa 0,0 l/m 0 min 0 min 26 W/m 6,4 km/h (2 Bft) 97,87 %
14.07.2019 06:50 13,9 C 13,9 C 13,3 C 80 % 1019,3 hPa 0,0 l/m 0 min 0 min 27 W/m 9,7 km/h (2 Bft) 95,65 %
14.07.2019 06:52 14,0 C 13,9 C 13,3 C 80 % 1019,3 hPa 0,0 l/m 0 min 0 min 28 W/m 3,2 km/h (1 Bft) 97,87 %
14.07.2019 06:54 14,0 C 13,9 C 13,3 C 80 % 1019,3 hPa 0,0 l/m 0 min 0 min 30 W/m 6,4 km/h (2 Bft) 97,87 %
14.07.2019 06:56 14,0 C 13,9 C 13,3 C 80 % 1019,3 hPa 0,0 l/m 0 min 0 min 30 W/m 3,2 km/h (1 Bft) 95,74 %
14.07.2019 06:58 14,0 C 13,9 C 13,3 C 80 % 1019,4 hPa 0,0 l/m 0 min 0 min 31 W/m 3,2 km/h (1 Bft) 97,87 %
14.07.2019 07:00 14,1 C 13,9 C 13,3 C 80 % 1019,3 hPa 0,0 l/m 0 min 0 min 32 W/m 3,2 km/h (1 Bft) 97,87 %
14.07.2019 07:02 14,1 C 13,9 C 13,3 C 80 % 1019,3 hPa 0,0 l/m 0 min 0 min 32 W/m 6,4 km/h (2 Bft) 97,83 %
14.07.2019 07:04 14,1 C 13,9 C 13,3 C 80 % 1019,3 hPa 0,0 l/m 0 min 0 min 32 W/m 6,4 km/h (2 Bft) 97,87 %
14.07.2019 07:08 14,2 C 13,9 C 13,3 C 80 % 1019,3 hPa 0,0 l/m 0 min 0 min 33 W/m 6,4 km/h (2 Bft) 96,81 %
14.07.2019 07:10 14,2 C 13,9 C 13,3 C 80 % 1019,3 hPa 0,0 l/m 0 min 0 min 34 W/m 6,4 km/h (2 Bft) 95,74 %
14.07.2019 07:12 14,2 C 13,9 C 13,3 C 80 % 1019,3 hPa 0,0 l/m 0 min 0 min 37 W/m 6,4 km/h (2 Bft) 93,48 %
14.07.2019 07:14 14,2 C 13,9 C 13,3 C 80 % 1019,3 hPa 0,0 l/m 0 min 0 min 37 W/m 12,9 km/h (3 Bft) 95,74 %
14.07.2019 07:16 14,2 C 13,9 C 13,3 C 80 % 1019,3 hPa 0,0 l/m 0 min 0 min 37 W/m 6,4 km/h (2 Bft) 93,62 %
14.07.2019 07:18 14,2 C 13,9 C 13,3 C 80 % 1019,3 hPa 0,0 l/m 0 min 0 min 37 W/m 6,4 km/h (2 Bft) 91,49 %
14.07.2019 07:20 14,2 C 13,9 C 13,3 C 80 % 1019,3 hPa 0,0 l/m 0 min 0 min 38 W/m 9,7 km/h (2 Bft) 91,49 %
14.07.2019 07:22 14,2 C 13,9 C 13,3 C 80 % 1019,3 hPa 0,0 l/m 0 min 0 min 39 W/m 6,4 km/h (2 Bft) 91,49 %
14.07.2019 07:24 14,2 C 13,9 C 13,3 C 80 % 1019,3 hPa 0,0 l/m 0 min 0 min 40 W/m 3,2 km/h (1 Bft) 93,48 %
14.07.2019 07:26 14,2 C 13,9 C 13,3 C 80 % 1019,4 hPa 0,0 l/m 0 min 0 min 43 W/m 3,2 km/h (1 Bft) 93,62 %
14.07.2019 07:28 14,2 C 13,9 C 13,3 C 80 % 1019,5 hPa 0,0 l/m 0 min 0 min 47 W/m 3,2 km/h (1 Bft) 91,49 %
14.07.2019 07:30 14,2 C 13,9 C 13,3 C 80 % 1019,5 hPa 0,0 l/m 0 min 0 min 50 W/m 6,4 km/h (2 Bft) 93,62 %
14.07.2019 07:32 14,2 C 13,9 C 13,3 C 80 % 1019,5 hPa 0,0 l/m 0 min 0 min 55 W/m 9,7 km/h (2 Bft) 95,74 %
14.07.2019 07:34 14,2 C 13,9 C 13,9 C 80 % 1019,5 hPa 0,0 l/m 0 min 0 min 59 W/m 6,4 km/h (2 Bft) 93,62 %
14.07.2019 07:36 14,2 C 13,9 C 13,9 C 80 % 1019,4 hPa 0,0 l/m 0 min 0 min 62 W/m 9,7 km/h (2 Bft) 93,48 %
14.07.2019 07:38 14,2 C 13,9 C 13,9 C 80 % 1019,4 hPa 0,0 l/m 0 min 0 min 62 W/m 3,2 km/h (1 Bft) 95,74 %
14.07.2019 07:40 14,2 C 14,4 C 13,9 C 81 % 1019,5 hPa 0,0 l/m 0 min 0 min 64 W/m 12,9 km/h (3 Bft) 95,74 %
14.07.2019 07:42 14,2 C 14,4 C 13,9 C 81 % 1019,4 hPa 0,0 l/m 0 min 0 min 66 W/m 9,7 km/h (2 Bft) 93,62 %
14.07.2019 07:44 14,2 C 14,4 C 13,9 C 80 % 1019,5 hPa 0,0 l/m 0 min 0 min 67 W/m 12,9 km/h (3 Bft) 93,62 %
14.07.2019 07:46 14,2 C 14,4 C 13,9 C 80 % 1019,5 hPa 0,0 l/m 0 min 0 min 69 W/m 6,4 km/h (2 Bft) 95,74 %
14.07.2019 07:48 14,3 C 14,4 C 13,9 C 80 % 1019,6 hPa 0,0 l/m 0 min 0 min 74 W/m 6,4 km/h (2 Bft) 95,65 %
14.07.2019 07:50 14,3 C 14,4 C 13,9 C 80 % 1019,6 hPa 0,0 l/m 0 min 0 min 77 W/m 6,4 km/h (2 Bft) 95,74 %
14.07.2019 07:52 14,3 C 14,4 C 13,9 C 81 % 1019,7 hPa 0,0 l/m 0 min 0 min 77 W/m 6,4 km/h (2 Bft) 95,74 %
14.07.2019 07:54 14,3 C 14,4 C 13,9 C 80 % 1019,6 hPa 0,0 l/m 0 min 0 min 77 W/m 6,4 km/h (2 Bft) 93,62 %
14.07.2019 07:56 14,3 C 14,4 C 13,9 C 80 % 1019,6 hPa 0,0 l/m 0 min 0 min 79 W/m 12,9 km/h (3 Bft) 95,74 %
14.07.2019 07:58 14,4 C 14,4 C 13,9 C 80 % 1019,6 hPa 0,0 l/m 0 min 0 min 78 W/m 6,4 km/h (2 Bft) 95,74 %
14.07.2019 08:00 14,4 C 14,4 C 13,9 C 80 % 1019,6 hPa 0,0 l/m 0 min 0 min 77 W/m 3,2 km/h (1 Bft) 100,00 %
14.07.2019 08:02 14,4 C 14,4 C 13,9 C 81 % 1019,6 hPa 0,0 l/m 0 min 0 min 79 W/m 3,2 km/h (1 Bft) 97,87 %
14.07.2019 08:04 14,4 C 14,4 C 13,9 C 81 % 1019,6 hPa 0,0 l/m 0 min 0 min 79 W/m 9,7 km/h (2 Bft) 100,00 %
14.07.2019 08:08 14,5 C 14,4 C 13,9 C 80 % 1019,7 hPa 0,0 l/m 0 min 0 min 83 W/m 9,7 km/h (2 Bft) 100,00 %
14.07.2019 08:10 14,5 C 14,4 C 13,9 C 80 % 1019,6 hPa 0,0 l/m 0 min 0 min 86 W/m 9,7 km/h (2 Bft) 100,00 %
14.07.2019 08:12 14,5 C 15,0 C 13,9 C 80 % 1019,6 hPa 0,0 l/m 0 min 0 min 87 W/m 6,4 km/h (2 Bft) 100,00 %
14.07.2019 08:14 14,6 C 15,0 C 13,9 C 80 % 1019,6 hPa 0,0 l/m 0 min 0 min 91 W/m 6,4 km/h (2 Bft) 100,00 %
14.07.2019 08:16 14,6 C 15,0 C 14,4 C 80 % 1019,6 hPa 0,0 l/m 0 min 0 min 96 W/m 6,4 km/h (2 Bft) 100,00 %
14.07.2019 08:18 14,6 C 15,0 C 14,4 C 81 % 1019,6 hPa 0,0 l/m 0 min 0 min 99 W/m 6,4 km/h (2 Bft) 100,00 %
14.07.2019 08:20 14,6 C 15,0 C 14,4 C 81 % 1019,7 hPa 0,0 l/m 0 min 0 min 101 W/m 6,4 km/h (2 Bft) 100,00 %
14.07.2019 08:22 14,7 C 15,0 C 14,4 C 81 % 1019,7 hPa 0,0 l/m 0 min 0 min 105 W/m 9,7 km/h (2 Bft) 100,00 %
14.07.2019 08:24 14,7 C 15,0 C 14,4 C 81 % 1019,7 hPa 0,0 l/m 0 min 0 min 109 W/m 3,2 km/h (1 Bft) 100,00 %
14.07.2019 08:26 14,7 C 15,0 C 14,4 C 81 % 1019,7 hPa 0,0 l/m 0 min 0 min 111 W/m 3,2 km/h (1 Bft) 97,87 %
14.07.2019 08:28 14,7 C 15,6 C 14,4 C 81 % 1019,7 hPa 0,0 l/m 0 min 0 min 116 W/m 3,2 km/h (1 Bft) 97,87 %
14.07.2019 08:30 14,8 C 15,6 C 14,4 C 81 % 1019,7 hPa 0,0 l/m 0 min 0 min 122 W/m 3,2 km/h (1 Bft) 100,00 %
14.07.2019 08:32 14,8 C 15,6 C 15,0 C 82 % 1019,7 hPa 0,0 l/m 0 min 0 min 125 W/m 0,0 km/h (0 Bft) 100,00 %
14.07.2019 08:34 14,8 C 15,6 C 15,0 C 82 % 1019,8 hPa 0,0 l/m 0 min 0 min 129 W/m 3,2 km/h (1 Bft) 97,83 %
14.07.2019 08:36 14,9 C 16,1 C 15,0 C 82 % 1019,7 hPa 0,0 l/m 0 min 0 min 136 W/m 3,2 km/h (1 Bft) 100,00 %
14.07.2019 08:38 14,9 C 16,1 C 15,0 C 82 % 1019,8 hPa 0,0 l/m 0 min 0 min 143 W/m 3,2 km/h (1 Bft) 100,00 %
14.07.2019 08:40 15,0 C 16,1 C 15,0 C 82 % 1019,8 hPa 0,0 l/m 0 min 0 min 144 W/m 3,2 km/h (1 Bft) 100,00 %
14.07.2019 08:42 15,0 C 16,1 C 15,0 C 81 % 1019,8 hPa 0,0 l/m 0 min 0 min 145 W/m 6,4 km/h (2 Bft) 100,00 %
14.07.2019 08:44 15,1 C 16,1 C 15,0 C 81 % 1019,8 hPa 0,0 l/m 0 min 0 min 153 W/m 6,4 km/h (2 Bft) 100,00 %
14.07.2019 08:46 15,1 C 16,7 C 15,6 C 81 % 1019,8 hPa 0,0 l/m 0 min 0 min 165 W/m 3,2 km/h (1 Bft) 97,83 %
14.07.2019 08:48 15,2 C 16,7 C 15,6 C 81 % 1019,8 hPa 0,0 l/m 0 min 0 min 173 W/m 3,2 km/h (1 Bft) 100,00 %
14.07.2019 08:50 15,2 C 16,7 C 15,6 C 80 % 1019,8 hPa 0,0 l/m 0 min 0 min 175 W/m 6,4 km/h (2 Bft) 97,87 %
14.07.2019 08:52 15,2 C 16,7 C 15,6 C 80 % 1019,8 hPa 0,0 l/m 0 min 0 min 165 W/m 6,4 km/h (2 Bft) 100,00 %
14.07.2019 08:54 15,3 C 16,7 C 15,6 C 80 % 1019,8 hPa 0,0 l/m 0 min 0 min 159 W/m 3,2 km/h (1 Bft) 100,00 %
14.07.2019 08:56 15,3 C 16,7 C 15,6 C 79 % 1019,8 hPa 0,0 l/m 0 min 0 min 157 W/m 6,4 km/h (2 Bft) 100,00 %
14.07.2019 08:58 15,4 C 16,1 C 15,6 C 79 % 1019,8 hPa 0,0 l/m 0 min 0 min 164 W/m 9,7 km/h (2 Bft) 100,00 %
14.07.2019 09:00 15,4 C 16,1 C 15,6 C 78 % 1019,7 hPa 0,0 l/m 0 min 0 min 169 W/m 6,4 km/h (2 Bft) 100,00 %
14.07.2019 09:02 15,4 C 16,7 C 16,1 C 78 % 1019,8 hPa 0,0 l/m 0 min 0 min 195 W/m 9,7 km/h (2 Bft) 97,87 %
14.07.2019 09:04 15,4 C 17,2 C 16,7 C 77 % 1019,8 hPa 0,0 l/m 0 min 0 min 218 W/m 9,7 km/h (2 Bft) 100,00 %
14.07.2019 09:08 15,6 C 17,8 C 16,7 C 78 % 1019,8 hPa 0,0 l/m 0 min 0 min 220 W/m 9,7 km/h (2 Bft) 100,00 %
14.07.2019 09:10 15,7 C 17,2 C 16,7 C 78 % 1019,8 hPa 0,0 l/m 0 min 0 min 208 W/m 9,7 km/h (2 Bft) 97,87 %
14.07.2019 09:12 15,7 C 17,2 C 16,7 C 78 % 1019,8 hPa 0,0 l/m 0 min 0 min 205 W/m 12,9 km/h (3 Bft) 100,00 %
14.07.2019 09:14 15,7 C 17,2 C 16,7 C 77 % 1019,9 hPa 0,0 l/m 0 min 0 min 201 W/m 6,4 km/h (2 Bft) 100,00 %
14.07.2019 09:16 15,8 C 17,2 C 16,1 C 77 % 1019,8 hPa 0,0 l/m 0 min 0 min 196 W/m 6,4 km/h (2 Bft) 100,00 %
14.07.2019 09:18 15,8 C 17,2 C 16,7 C 77 % 1019,8 hPa 0,0 l/m 0 min 0 min 203 W/m 12,9 km/h (3 Bft) 97,87 %
14.07.2019 09:20 15,9 C 17,8 C 16,7 C 77 % 1019,9 hPa 0,0 l/m 0 min 0 min 216 W/m 3,2 km/h (1 Bft) 100,00 %
14.07.2019 09:22 15,9 C 18,3 C 16,7 C 77 % 1019,9 hPa 0,0 l/m 0 min 0 min 224 W/m 6,4 km/h (2 Bft) 100,00 %
14.07.2019 09:24 15,9 C 17,8 C 16,7 C 77 % 1019,9 hPa 0,0 l/m 0 min 0 min 244 W/m 9,7 km/h (2 Bft) 100,00 %
14.07.2019 09:26 16,0 C 18,3 C 17,2 C 77 % 1019,9 hPa 0,0 l/m 0 min 0 min 256 W/m 6,4 km/h (2 Bft) 97,87 %
14.07.2019 09:28 16,1 C 18,3 C 17,2 C 78 % 1019,9 hPa 0,0 l/m 0 min 0 min 260 W/m 6,4 km/h (2 Bft) 100,00 %
14.07.2019 09:30 16,2 C 18,3 C 17,2 C 77 % 1019,9 hPa 0,0 l/m 0 min 0 min 244 W/m 3,2 km/h (1 Bft) 100,00 %
14.07.2019 09:32 16,2 C 18,3 C 17,2 C 77 % 1019,8 hPa 0,0 l/m 0 min 0 min 247 W/m 9,7 km/h (2 Bft) 100,00 %
14.07.2019 09:34 16,2 C 18,3 C 17,2 C 76 % 1019,9 hPa 0,0 l/m 0 min 0 min 271 W/m 9,7 km/h (2 Bft) 100,00 %
14.07.2019 09:36 16,3 C 18,9 C 17,8 C 76 % 1019,8 hPa 0,0 l/m 0 min 0 min 267 W/m 9,7 km/h (2 Bft) 100,00 %
14.07.2019 09:38 16,3 C 18,9 C 17,8 C 76 % 1019,9 hPa 0,0 l/m 0 min 0 min 260 W/m 9,7 km/h (2 Bft) 97,87 %
14.07.2019 09:40 16,4 C 18,3 C 17,2 C 77 % 1019,9 hPa 0,0 l/m 0 min 0 min 239 W/m 6,4 km/h (2 Bft) 97,87 %
14.07.2019 09:42 16,4 C 18,3 C 17,2 C 76 % 1019,9 hPa 0,0 l/m 0 min 0 min 217 W/m 12,9 km/h (3 Bft) 100,00 %
14.07.2019 09:44 16,5 C 17,8 C 17,2 C 77 % 1020,0 hPa 0,0 l/m 0 min 0 min 205 W/m 9,7 km/h (2 Bft) 93,48 %
14.07.2019 09:46 16,5 C 17,8 C 16,7 C 76 % 1019,9 hPa 0,0 l/m 0 min 0 min 189 W/m 16,1 km/h (3 Bft) 95,74 %
14.07.2019 09:48 16,5 C 17,2 C 16,1 C 76 % 1019,9 hPa 0,0 l/m 0 min 0 min 164 W/m 12,9 km/h (3 Bft) 95,74 %
14.07.2019 09:50 16,5 C 16,7 C 16,1 C 76 % 1019,9 hPa 0,0 l/m 0 min 0 min 153 W/m 9,7 km/h (2 Bft) 95,74 %
14.07.2019 09:52 16,5 C 16,7 C 16,1 C 76 % 1019,9 hPa 0,0 l/m 0 min 0 min 149 W/m 9,7 km/h (2 Bft) 95,74 %
14.07.2019 09:54 16,5 C 16,7 C 16,1 C 76 % 1019,9 hPa 0,0 l/m 0 min 0 min 153 W/m 12,9 km/h (3 Bft) 95,74 %
14.07.2019 09:56 16,5 C 16,7 C 16,1 C 76 % 1020,0 hPa 0,0 l/m 0 min 0 min 183 W/m 6,4 km/h (2 Bft) 93,48 %
14.07.2019 09:58 16,5 C 16,7 C 16,1 C 76 % 1020,0 hPa 0,0 l/m 0 min 0 min 190 W/m 6,4 km/h (2 Bft) 95,74 %
14.07.2019 10:00 16,5 C 16,7 C 16,1 C 76 % 1020,1 hPa 0,0 l/m 0 min 0 min 179 W/m 9,7 km/h (2 Bft) 93,62 %
14.07.2019 10:02 16,5 C 16,7 C 16,1 C 76 % 1019,9 hPa 0,0 l/m 0 min 0 min 163 W/m 6,4 km/h (2 Bft) 95,74 %
14.07.2019 10:04 16,5 C 16,7 C 16,1 C 76 % 1020,0 hPa 0,0 l/m 0 min 0 min 139 W/m 6,4 km/h (2 Bft) 91,49 %
14.07.2019 10:08 16,4 C 16,1 C 15,6 C 76 % 1020,0 hPa 0,0 l/m 0 min 0 min 99 W/m 6,4 km/h (2 Bft) 95,70 %
14.07.2019 10:10 16,4 C 16,1 C 15,6 C 76 % 1020,0 hPa 0,0 l/m 0 min 0 min 102 W/m 9,7 km/h (2 Bft) 95,74 %
14.07.2019 10:12 16,4 C 16,1 C 15,6 C 77 % 1019,9 hPa 0,0 l/m 0 min 0 min 132 W/m 12,9 km/h (3 Bft) 91,49 %
14.07.2019 10:14 16,4 C 16,1 C 15,6 C 77 % 1020,0 hPa 0,0 l/m 0 min 0 min 151 W/m 3,2 km/h (1 Bft) 97,87 %
14.07.2019 10:16 16,4 C 16,1 C 15,6 C 77 % 1020,0 hPa 0,0 l/m 0 min 0 min 160 W/m 9,7 km/h (2 Bft) 95,74 %
14.07.2019 10:18 16,4 C 16,7 C 15,6 C 77 % 1020,1 hPa 0,0 l/m 0 min 0 min 157 W/m 6,4 km/h (2 Bft) 93,48 %
14.07.2019 10:20 16,4 C 16,7 C 15,6 C 77 % 1020,1 hPa 0,0 l/m 0 min 0 min 160 W/m 3,2 km/h (1 Bft) 91,49 %
14.07.2019 10:22 16,3 C 16,7 C 16,1 C 77 % 1020,1 hPa 0,0 l/m 0 min 0 min 172 W/m 6,4 km/h (2 Bft) 97,40 %
14.07.2019 10:24 16,3 C 16,7 C 16,1 C 77 % 1020,0 hPa 0,0 l/m 0 min 0 min 174 W/m 6,4 km/h (2 Bft) 95,00 %
14.07.2019 10:26 16,3 C 17,2 C 16,1 C 77 % 1020,1 hPa 0,0 l/m 0 min 0 min 188 W/m 6,4 km/h (2 Bft) 97,83 %
14.07.2019 10:28 16,4 C 17,2 C 16,7 C 78 % 1020,1 hPa 0,0 l/m 0 min 0 min 199 W/m 3,2 km/h (1 Bft) 95,74 %
14.07.2019 10:30 16,4 C 17,2 C 16,7 C 77 % 1020,1 hPa 0,0 l/m 0 min 0 min 202 W/m 12,9 km/h (3 Bft) 91,49 %
14.07.2019 10:32 16,4 C 17,8 C 16,7 C 78 % 1020,1 hPa 0,0 l/m 0 min 0 min 190 W/m 3,2 km/h (1 Bft) 97,87 %
14.07.2019 10:34 16,4 C 17,8 C 16,7 C 77 % 1020,0 hPa 0,0 l/m 0 min 0 min 176 W/m 6,4 km/h (2 Bft) 97,87 %
14.07.2019 10:36 16,4 C 17,8 C 16,7 C 78 % 1020,1 hPa 0,0 l/m 0 min 0 min 165 W/m 6,4 km/h (2 Bft) 97,87 %
14.07.2019 10:38 16,5 C 17,2 C 16,7 C 78 % 1020,1 hPa 0,0 l/m 0 min 0 min 156 W/m 3,2 km/h (1 Bft) 97,83 %
14.07.2019 10:40 16,5 C 17,2 C 16,1 C 78 % 1020,1 hPa 0,0 l/m 0 min 0 min 157 W/m 6,4 km/h (2 Bft) 93,62 %
14.07.2019 10:42 16,5 C 17,2 C 16,1 C 78 % 1020,1 hPa 0,0 l/m 0 min 0 min 164 W/m 9,7 km/h (2 Bft) 97,87 %
14.07.2019 10:44 16,5 C 17,2 C 16,1 C 78 % 1020,1 hPa 0,0 l/m 0 min 0 min 163 W/m 9,7 km/h (2 Bft) 97,87 %
14.07.2019 10:46 16,6 C 17,2 C 16,1 C 78 % 1020,1 hPa 0,0 l/m 0 min 0 min 164 W/m 6,4 km/h (2 Bft) 97,87 %
14.07.2019 10:48 16,6 C 17,2 C 16,1 C 78 % 1020,2 hPa 0,0 l/m 0 min 0 min 181 W/m 16,1 km/h (3 Bft) 97,87 %
14.07.2019 10:50 16,6 C 16,7 C 16,1 C 77 % 1020,1 hPa 0,0 l/m 0 min 0 min 215 W/m 16,1 km/h (3 Bft) 95,65 %
14.07.2019 10:52 16,6 C 17,2 C 16,7 C 77 % 1020,1 hPa 0,0 l/m 0 min 0 min 244 W/m 6,4 km/h (2 Bft) 97,87 %
14.07.2019 10:54 16,6 C 17,8 C 17,2 C 78 % 1020,2 hPa 0,0 l/m 0 min 0 min 205 W/m 12,9 km/h (3 Bft) 97,87 %
14.07.2019 10:56 16,6 C 18,3 C 17,2 C 78 % 1020,1 hPa 0,0 l/m 0 min 0 min 250 W/m 6,4 km/h (2 Bft) 97,87 %
14.07.2019 10:58 16,7 C 18,9 C 17,8 C 78 % 1020,1 hPa 0,0 l/m 0 min 0 min 307 W/m 9,7 km/h (2 Bft) 97,87 %
14.07.2019 11:00 16,7 C 18,9 C 17,8 C 79 % 1020,1 hPa 0,0 l/m 0 min 0 min 295 W/m 6,4 km/h (2 Bft) 95,65 %
14.07.2019 11:02 16,8 C 18,9 C 17,8 C 79 % 1020,1 hPa 0,0 l/m 0 min 0 min 293 W/m 6,4 km/h (2 Bft) 97,87 %
14.07.2019 11:04 16,8 C 18,9 C 17,8 C 78 % 1020,1 hPa 0,0 l/m 0 min 0 min 305 W/m 12,9 km/h (3 Bft) 97,87 %
14.07.2019 11:08 16,9 C 19,4 C 18,3 C 77 % 1020,1 hPa 0,0 l/m 0 min 0 min 308 W/m 12,9 km/h (3 Bft) 96,81 %
14.07.2019 11:10 17,1 C 20,0 C 18,9 C 78 % 1020,1 hPa 0,0 l/m 0 min 0 min 323 W/m 9,7 km/h (2 Bft) 97,87 %
14.07.2019 11:12 17,1 C 19,4 C 18,3 C 77 % 1020,2 hPa 0,0 l/m 0 min 0 min 332 W/m 16,1 km/h (3 Bft) 97,83 %
14.07.2019 11:18 17,2 C 18,9 C 17,8 C 75 % 1020,1 hPa 0,0 l/m 0 min 0 min 294 W/m 6,4 km/h (2 Bft) 97,33 %
14.07.2019 11:20 17,3 C 18,9 C 17,8 C 75 % 1020,1 hPa 0,0 l/m 0 min 0 min 268 W/m 9,7 km/h (2 Bft) 97,83 %
14.07.2019 11:22 17,3 C 18,9 C 17,8 C 75 % 1020,1 hPa 0,0 l/m 0 min 0 min 245 W/m 9,7 km/h (2 Bft) 97,87 %
14.07.2019 11:24 17,3 C 18,9 C 17,2 C 75 % 1020,1 hPa 0,0 l/m 0 min 0 min 231 W/m 6,4 km/h (2 Bft) 98,11 %
14.07.2019 11:26 17,3 C 18,3 C 17,2 C 75 % 1020,1 hPa 0,0 l/m 0 min 0 min 221 W/m 6,4 km/h (2 Bft) 97,37 %
14.07.2019 11:28 17,3 C 18,3 C 17,2 C 75 % 1020,2 hPa 0,0 l/m 0 min 0 min 210 W/m 6,4 km/h (2 Bft) 97,37 %
14.07.2019 11:30 17,3 C 17,8 C 17,2 C 74 % 1020,3 hPa 0,0 l/m 0 min 0 min 190 W/m 6,4 km/h (2 Bft) 98,46 %
14.07.2019 11:32 17,3 C 17,8 C 16,7 C 74 % 1020,1 hPa 0,0 l/m 0 min 0 min 178 W/m 19,3 km/h (3 Bft) 100,00 %
14.07.2019 11:34 17,3 C 17,2 C 16,7 C 74 % 1020,1 hPa 0,0 l/m 0 min 0 min 175 W/m 9,7 km/h (2 Bft) 100,00 %
14.07.2019 11:36 17,2 C 17,2 C 16,7 C 74 % 1020,1 hPa 0,0 l/m 0 min 0 min 172 W/m 6,4 km/h (2 Bft) 100,00 %
14.07.2019 11:38 17,2 C 17,8 C 16,7 C 74 % 1020,1 hPa 0,0 l/m 0 min 0 min 181 W/m 3,2 km/h (1 Bft) 100,00 %
14.07.2019 11:40 17,2 C 17,8 C 17,2 C 76 % 1020,3 hPa 0,0 l/m 0 min 0 min 206 W/m 3,2 km/h (1 Bft) 100,00 %
14.07.2019 11:42 17,3 C 18,3 C 17,2 C 76 % 1020,1 hPa 0,0 l/m 0 min 0 min 238 W/m 6,4 km/h (2 Bft) 100,00 %
14.07.2019 11:44 17,2 C 18,3 C 17,8 C 76 % 1020,2 hPa 0,0 l/m 0 min 0 min 289 W/m 9,7 km/h (2 Bft) 100,00 %
14.07.2019 11:46 17,3 C 18,9 C 17,8 C 75 % 1020,2 hPa 0,0 l/m 0 min 0 min 316 W/m 6,4 km/h (2 Bft) 100,00 %
14.07.2019 11:48 17,3 C 18,9 C 18,3 C 75 % 1020,1 hPa 0,0 l/m 0 min 0 min 316 W/m 12,9 km/h (3 Bft) 100,00 %
14.07.2019 11:50 17,3 C 18,9 C 18,3 C 74 % 1020,2 hPa 0,0 l/m 0 min 0 min 277 W/m 3,2 km/h (1 Bft) 100,00 %
14.07.2019 11:52 17,3 C 18,9 C 17,8 C 75 % 1020,2 hPa 0,0 l/m 0 min 0 min 235 W/m 6,4 km/h (2 Bft) 100,00 %
14.07.2019 11:54 17,4 C 18,3 C 17,8 C 75 % 1020,1 hPa 0,0 l/m 0 min 0 min 199 W/m 3,2 km/h (1 Bft) 100,00 %
14.07.2019 11:56 17,4 C 18,3 C 17,8 C 75 % 1020,1 hPa 0,0 l/m 0 min 0 min 194 W/m 3,2 km/h (1 Bft) 100,00 %
14.07.2019 11:58 17,4 C 18,3 C 17,2 C 76 % 1020,1 hPa 0,0 l/m 0 min 0 min 189 W/m 3,2 km/h (1 Bft) 100,00 %
14.07.2019 12:00 17,4 C 18,3 C 17,2 C 76 % 1020,2 hPa 0,0 l/m 0 min 0 min 177 W/m 6,4 km/h (2 Bft) 95,74 %
14.07.2019 12:02 17,4 C 17,8 C 17,2 C 75 % 1020,1 hPa 0,0 l/m 0 min 0 min 168 W/m 9,7 km/h (2 Bft) 100,00 %
14.07.2019 12:04 17,4 C 17,8 C 16,7 C 74 % 1020,2 hPa 0,0 l/m 0 min 0 min 187 W/m 9,7 km/h (2 Bft) 100,00 %
14.07.2019 12:08 17,4 C 18,9 C 17,8 C 76 % 1020,2 hPa 0,0 l/m 0 min 0 min 270 W/m 6,4 km/h (2 Bft) 100,00 %
14.07.2019 12:10 17,5 C 19,4 C 18,3 C 76 % 1020,1 hPa 0,0 l/m 0 min 0 min 359 W/m 6,4 km/h (2 Bft) 100,00 %
14.07.2019 12:12 17,5 C 20,0 C 18,9 C 75 % 1020,1 hPa 0,0 l/m 2 min 0 min 442 W/m 9,7 km/h (2 Bft) 100,00 %
14.07.2019 12:14 17,6 C 20,6 C 19,4 C 75 % 1020,1 hPa 0,0 l/m 2 min 0 min 405 W/m 6,4 km/h (2 Bft) 95,74 %
14.07.2019 12:16 17,7 C 20,6 C 18,9 C 75 % 1020,1 hPa 0,0 l/m 0 min 0 min 328 W/m 6,4 km/h (2 Bft) 100,00 %
14.07.2019 12:18 17,7 C 20,0 C 18,9 C 74 % 1020,2 hPa 0,0 l/m 0 min 0 min 286 W/m 12,9 km/h (3 Bft) 97,37 %
14.07.2019 12:20 17,7 C 19,4 C 18,3 C 73 % 1020,2 hPa 0,0 l/m 0 min 0 min 268 W/m 9,7 km/h (2 Bft) 95,74 %
14.07.2019 12:22 17,8 C 19,4 C 18,3 C 73 % 1020,2 hPa 0,0 l/m 0 min 0 min 255 W/m 9,7 km/h (2 Bft) 97,96 %
14.07.2019 12:24 17,8 C 19,4 C 18,3 C 74 % 1020,3 hPa 0,0 l/m 0 min 0 min 281 W/m 6,4 km/h (2 Bft) 95,74 %
14.07.2019 12:26 17,8 C 19,4 C 18,3 C 74 % 1020,2 hPa 0,0 l/m 0 min 0 min 344 W/m 6,4 km/h (2 Bft) 96,23 %
14.07.2019 12:28 17,9 C 20,0 C 19,4 C 74 % 1020,2 hPa 0,0 l/m 0 min 0 min 392 W/m 9,7 km/h (2 Bft) 97,37 %
14.07.2019 12:30 17,9 C 20,6 C 19,4 C 74 % 1020,1 hPa 0,0 l/m 0 min 0 min 382 W/m 9,7 km/h (2 Bft) 93,62 %
14.07.2019 12:32 18,0 C 20,6 C 18,9 C 73 % 1020,1 hPa 0,0 l/m 0 min 0 min 356 W/m 9,7 km/h (2 Bft) 93,75 %
14.07.2019 12:34 18,1 C 20,0 C 18,9 C 74 % 1020,1 hPa 0,0 l/m 0 min 0 min 343 W/m 6,4 km/h (2 Bft) 97,83 %
14.07.2019 12:36 18,1 C 20,6 C 18,9 C 73 % 1020,2 hPa 0,0 l/m 0 min 0 min 335 W/m 6,4 km/h (2 Bft) 97,87 %
14.07.2019 12:38 18,2 C 20,0 C 18,9 C 73 % 1020,2 hPa 0,0 l/m 0 min 0 min 328 W/m 6,4 km/h (2 Bft) 95,74 %
14.07.2019 12:40 18,2 C 20,0 C 18,9 C 73 % 1020,3 hPa 0,0 l/m 0 min 0 min 329 W/m 12,9 km/h (3 Bft) 95,74 %
14.07.2019 12:42 18,3 C 20,0 C 18,9 C 73 % 1020,2 hPa 0,0 l/m 0 min 0 min 317 W/m 12,9 km/h (3 Bft) 95,74 %
14.07.2019 12:44 18,2 C 20,0 C 18,3 C 72 % 1020,2 hPa 0,0 l/m 0 min 0 min 279 W/m 6,4 km/h (2 Bft) 97,87 %
14.07.2019 12:46 18,2 C 18,9 C 17,8 C 70 % 1020,1 hPa 0,0 l/m 0 min 0 min 250 W/m 16,1 km/h (3 Bft) 95,65 %
14.07.2019 12:48 18,2 C 18,9 C 17,8 C 71 % 1020,2 hPa 0,0 l/m 0 min 0 min 245 W/m 9,7 km/h (2 Bft) 93,62 %
14.07.2019 12:50 18,2 C 18,9 C 18,3 C 73 % 1020,2 hPa 0,0 l/m 0 min 0 min 270 W/m 6,4 km/h (2 Bft) 95,74 %
14.07.2019 12:52 18,2 C 18,9 C 18,3 C 72 % 1020,1 hPa 0,0 l/m 0 min 0 min 302 W/m 9,7 km/h (2 Bft) 95,74 %
14.07.2019 12:54 18,2 C 19,4 C 18,9 C 73 % 1020,1 hPa 0,0 l/m 0 min 0 min 318 W/m 9,7 km/h (2 Bft) 97,87 %
14.07.2019 12:56 18,2 C 19,4 C 18,3 C 72 % 1020,1 hPa 0,0 l/m 0 min 0 min 318 W/m 9,7 km/h (2 Bft) 97,83 %
14.07.2019 12:58 18,2 C 19,4 C 18,3 C 72 % 1020,1 hPa 0,0 l/m 0 min 0 min 308 W/m 6,4 km/h (2 Bft) 93,62 %
14.07.2019 13:00 18,2 C 20,0 C 18,9 C 72 % 1020,1 hPa 0,0 l/m 0 min 0 min 345 W/m 9,7 km/h (2 Bft) 97,87 %
14.07.2019 13:02 18,3 C 20,6 C 18,9 C 73 % 1020,1 hPa 0,0 l/m 0 min 0 min 395 W/m 9,7 km/h (2 Bft) 95,74 %
14.07.2019 13:04 18,3 C 21,1 C 19,4 C 73 % 1020,1 hPa 0,0 l/m 0 min 0 min 413 W/m 6,4 km/h (2 Bft) 95,74 %
14.07.2019 13:08 18,5 C 22,8 C 21,1 C 72 % 1020,1 hPa 0,0 l/m 4 min 0 min 417 W/m 9,7 km/h (2 Bft) 97,85 %
14.07.2019 13:10 18,6 C 21,7 C 20,6 C 71 % 1020,1 hPa 0,0 l/m 0 min 0 min 347 W/m 12,9 km/h (3 Bft) 95,74 %
14.07.2019 13:12 18,6 C 21,1 C 20,0 C 71 % 1020,0 hPa 0,0 l/m 0 min 0 min 323 W/m 25,7 km/h (4 Bft) 97,87 %
14.07.2019 13:14 18,7 C 20,6 C 19,4 C 72 % 1020,1 hPa 0,0 l/m 0 min 0 min 316 W/m 9,7 km/h (2 Bft) 95,74 %
14.07.2019 13:16 18,7 C 20,6 C 19,4 C 73 % 1020,1 hPa 0,0 l/m 0 min 0 min 315 W/m 6,4 km/h (2 Bft) 97,87 %
14.07.2019 13:18 18,7 C 20,0 C 19,4 C 71 % 1020,1 hPa 0,0 l/m 0 min 0 min 315 W/m 12,9 km/h (3 Bft) 97,87 %
14.07.2019 13:20 18,7 C 20,6 C 19,4 C 71 % 1020,1 hPa 0,0 l/m 0 min 0 min 324 W/m 6,4 km/h (2 Bft) 95,83 %
14.07.2019 13:22 18,8 C 20,0 C 19,4 C 72 % 1020,0 hPa 0,0 l/m 0 min 0 min 342 W/m 9,7 km/h (2 Bft) 97,87 %
14.07.2019 13:24 18,8 C 20,0 C 19,4 C 71 % 1020,0 hPa 0,0 l/m 0 min 0 min 351 W/m 16,1 km/h (3 Bft) 97,87 %
14.07.2019 13:26 18,8 C 20,6 C 19,4 C 70 % 1020,0 hPa 0,0 l/m 0 min 0 min 385 W/m 12,9 km/h (3 Bft) 97,62 %
14.07.2019 13:28 18,9 C 20,6 C 20,0 C 71 % 1020,1 hPa 0,0 l/m 2 min 0 min 444 W/m 9,7 km/h (2 Bft) 100,00 %
14.07.2019 13:30 18,9 C 21,1 C 20,0 C 72 % 1020,0 hPa 0,0 l/m 0 min 0 min 370 W/m 6,4 km/h (2 Bft) 100,00 %
14.07.2019 13:32 19,0 C 21,1 C 20,0 C 71 % 1020,1 hPa 0,0 l/m 0 min 0 min 350 W/m 9,7 km/h (2 Bft) 100,00 %
14.07.2019 13:34 19,1 C 20,6 C 20,0 C 70 % 1020,0 hPa 0,0 l/m 0 min 0 min 332 W/m 12,9 km/h (3 Bft) 97,87 %
14.07.2019 13:36 19,1 C 20,6 C 19,4 C 70 % 1020,1 hPa 0,0 l/m 0 min 0 min 311 W/m 6,4 km/h (2 Bft) 95,74 %
14.07.2019 13:38 19,1 C 20,6 C 19,4 C 71 % 1020,1 hPa 0,0 l/m 0 min 0 min 312 W/m 6,4 km/h (2 Bft) 100,00 %
14.07.2019 13:40 19,1 C 21,1 C 19,4 C 71 % 1020,0 hPa 0,0 l/m 0 min 0 min 319 W/m 6,4 km/h (2 Bft) 100,00 %
14.07.2019 13:42 19,1 C 20,6 C 19,4 C 71 % 1020,0 hPa 0,0 l/m 0 min 0 min 315 W/m 12,9 km/h (3 Bft) 100,00 %
14.07.2019 13:44 19,1 C 20,6 C 20,0 C 69 % 1020,1 hPa 0,0 l/m 2 min 0 min 425 W/m 9,7 km/h (2 Bft) 97,67 %
14.07.2019 13:46 19,1 C 21,1 C 20,6 C 69 % 1020,0 hPa 0,0 l/m 2 min 0 min 509 W/m 9,7 km/h (2 Bft) 100,00 %
14.07.2019 13:48 19,2 C 21,7 C 21,1 C 70 % 1019,9 hPa 0,0 l/m 2 min 0 min 532 W/m 22,5 km/h (4 Bft) 97,92 %
14.07.2019 13:50 19,2 C 21,7 C 20,6 C 69 % 1019,9 hPa 0,0 l/m 2 min 0 min 469 W/m 16,1 km/h (3 Bft) 100,00 %
14.07.2019 13:52 19,3 C 22,2 C 20,6 C 70 % 1019,9 hPa 0,0 l/m 0 min 0 min 390 W/m 9,7 km/h (2 Bft) 100,00 %
14.07.2019 13:54 19,3 C 21,1 C 20,0 C 69 % 1019,9 hPa 0,0 l/m 0 min 0 min 322 W/m 12,9 km/h (3 Bft) 97,87 %
14.07.2019 13:56 19,3 C 20,6 C 19,4 C 68 % 1019,9 hPa 0,0 l/m 0 min 0 min 270 W/m 9,7 km/h (2 Bft) 100,00 %
14.07.2019 13:58 19,3 C 20,6 C 18,9 C 67 % 1019,9 hPa 0,0 l/m 0 min 0 min 245 W/m 9,7 km/h (2 Bft) 100,00 %
14.07.2019 14:00 19,3 C 20,0 C 18,9 C 69 % 1019,9 hPa 0,0 l/m 0 min 0 min 223 W/m 9,7 km/h (2 Bft) 97,87 %
14.07.2019 14:02 19,3 C 20,0 C 18,9 C 69 % 1019,8 hPa 0,0 l/m 0 min 0 min 195 W/m 6,4 km/h (2 Bft) 97,87 %
14.07.2019 14:04 19,3 C 19,4 C 18,9 C 70 % 1019,8 hPa 0,0 l/m 0 min 0 min 185 W/m 6,4 km/h (2 Bft) 97,67 %
14.07.2019 14:08 19,2 C 19,4 C 18,9 C 70 % 1019,9 hPa 0,0 l/m 0 min 0 min 183 W/m 19,3 km/h (3 Bft) 100,00 %
14.07.2019 14:10 19,2 C 18,9 C 18,3 C 70 % 1019,9 hPa 0,0 l/m 0 min 0 min 181 W/m 9,7 km/h (2 Bft) 96,00 %
14.07.2019 14:12 19,1 C 18,9 C 18,3 C 70 % 1019,9 hPa 0,0 l/m 0 min 0 min 199 W/m 6,4 km/h (2 Bft) 97,92 %
14.07.2019 14:14 19,0 C 18,9 C 18,3 C 70 % 1019,9 hPa 0,0 l/m 0 min 0 min 204 W/m 9,7 km/h (2 Bft) 97,87 %
14.07.2019 14:16 18,9 C 18,9 C 18,3 C 70 % 1019,9 hPa 0,0 l/m 0 min 0 min 197 W/m 6,4 km/h (2 Bft) 100,00 %
14.07.2019 14:18 18,9 C 18,9 C 18,3 C 70 % 1019,9 hPa 0,0 l/m 0 min 0 min 193 W/m 6,4 km/h (2 Bft) 97,87 %
14.07.2019 14:20 18,9 C 18,9 C 18,3 C 71 % 1019,9 hPa 0,0 l/m 0 min 0 min 198 W/m 3,2 km/h (1 Bft) 97,67 %
14.07.2019 14:22 18,8 C 18,9 C 18,3 C 71 % 1019,9 hPa 0,0 l/m 0 min 0 min 214 W/m 6,4 km/h (2 Bft) 97,87 %
14.07.2019 14:24 18,8 C 19,4 C 18,3 C 71 % 1019,9 hPa 0,0 l/m 0 min 0 min 236 W/m 22,5 km/h (4 Bft) 98,00 %
14.07.2019 14:26 18,8 C 19,4 C 18,3 C 71 % 1019,9 hPa 0,0 l/m 0 min 0 min 247 W/m 9,7 km/h (2 Bft) 95,83 %
14.07.2019 14:28 18,8 C 19,4 C 18,9 C 72 % 1019,9 hPa 0,0 l/m 0 min 0 min 237 W/m 6,4 km/h (2 Bft) 97,83 %
14.07.2019 14:30 18,8 C 19,4 C 18,9 C 71 % 1019,9 hPa 0,0 l/m 0 min 0 min 220 W/m 6,4 km/h (2 Bft) 95,74 %
14.07.2019 14:32 18,8 C 19,4 C 18,9 C 71 % 1019,9 hPa 0,0 l/m 0 min 0 min 233 W/m 6,4 km/h (2 Bft) 97,87 %
14.07.2019 14:34 18,8 C 19,4 C 18,9 C 71 % 1019,9 hPa 0,0 l/m 0 min 0 min 262 W/m 16,1 km/h (3 Bft) 97,67 %
14.07.2019 14:36 18,8 C 20,0 C 18,9 C 71 % 1019,9 hPa 0,0 l/m 0 min 0 min 290 W/m 6,4 km/h (2 Bft) 98,00 %
14.07.2019 14:38 18,8 C 20,6 C 19,4 C 72 % 1019,9 hPa 0,0 l/m 0 min 0 min 309 W/m 3,2 km/h (1 Bft) 95,65 %
14.07.2019 14:40 18,9 C 20,6 C 19,4 C 71 % 1019,9 hPa 0,0 l/m 0 min 0 min 307 W/m 6,4 km/h (2 Bft) 97,87 %
14.07.2019 14:42 18,9 C 20,6 C 19,4 C 70 % 1019,9 hPa 0,0 l/m 0 min 0 min 322 W/m 12,9 km/h (3 Bft) 97,87 %
14.07.2019 14:44 18,9 C 20,6 C 19,4 C 70 % 1019,9 hPa 0,0 l/m 0 min 0 min 344 W/m 9,7 km/h (2 Bft) 93,02 %
14.07.2019 14:46 18,9 C 20,6 C 19,4 C 69 % 1019,9 hPa 0,0 l/m 0 min 0 min 348 W/m 25,7 km/h (4 Bft) 96,00 %
14.07.2019 14:48 19,0 C 20,6 C 19,4 C 71 % 1019,8 hPa 0,0 l/m 0 min 0 min 347 W/m 12,9 km/h (3 Bft) 93,62 %
14.07.2019 14:50 19,1 C 20,6 C 19,4 C 71 % 1019,9 hPa 0,0 l/m 0 min 0 min 317 W/m 9,7 km/h (2 Bft) 93,62 %
14.07.2019 14:52 19,1 C 20,6 C 19,4 C 71 % 1019,9 hPa 0,0 l/m 0 min 0 min 285 W/m 6,4 km/h (2 Bft) 95,74 %
14.07.2019 14:54 19,1 C 20,6 C 19,4 C 71 % 1019,9 hPa 0,0 l/m 0 min 0 min 285 W/m 12,9 km/h (3 Bft) 95,74 %
14.07.2019 14:56 19,1 C 20,6 C 19,4 C 71 % 1019,9 hPa 0,0 l/m 0 min 0 min 271 W/m 6,4 km/h (2 Bft) 95,74 %
14.07.2019 14:58 19,1 C 20,0 C 19,4 C 70 % 1019,9 hPa 0,0 l/m 0 min 0 min 251 W/m 6,4 km/h (2 Bft) 95,35 %
14.07.2019 15:00 19,1 C 20,0 C 18,9 C 70 % 1019,8 hPa 0,0 l/m 0 min 0 min 226 W/m 12,9 km/h (3 Bft) 92,00 %
14.07.2019 15:02 19,1 C 19,4 C 18,9 C 70 % 1019,9 hPa 0,0 l/m 0 min 0 min 220 W/m 9,7 km/h (2 Bft) 95,74 %
14.07.2019 15:04 19,1 C 19,4 C 18,9 C 70 % 1019,9 hPa 0,0 l/m 0 min 0 min 214 W/m 6,4 km/h (2 Bft) 95,74 %
14.07.2019 15:08 19,1 C 19,4 C 18,9 C 71 % 1019,8 hPa 0,0 l/m 0 min 0 min 229 W/m 9,7 km/h (2 Bft) 93,62 %
14.07.2019 15:10 19,1 C 20,0 C 18,9 C 71 % 1019,9 hPa 0,0 l/m 0 min 0 min 251 W/m 6,4 km/h (2 Bft) 95,74 %
14.07.2019 15:12 19,1 C 20,0 C 18,9 C 72 % 1019,8 hPa 0,0 l/m 0 min 0 min 253 W/m 6,4 km/h (2 Bft) 95,74 %
14.07.2019 15:14 19,1 C 20,0 C 18,9 C 71 % 1019,8 hPa 0,0 l/m 0 min 0 min 258 W/m 16,1 km/h (3 Bft) 95,65 %
14.07.2019 15:16 19,1 C 20,0 C 18,9 C 72 % 1019,8 hPa 0,0 l/m 0 min 0 min 260 W/m 9,7 km/h (2 Bft) 95,74 %
14.07.2019 15:18 19,1 C 20,0 C 18,9 C 72 % 1019,8 hPa 0,0 l/m 0 min 0 min 257 W/m 9,7 km/h (2 Bft) 91,49 %
14.07.2019 15:20 19,1 C 20,0 C 18,9 C 72 % 1019,8 hPa 0,0 l/m 0 min 0 min 247 W/m 12,9 km/h (3 Bft) 93,02 %
14.07.2019 15:22 19,1 C 19,4 C 18,9 C 72 % 1019,7 hPa 0,0 l/m 0 min 0 min 239 W/m 9,7 km/h (2 Bft) 96,00 %
14.07.2019 15:24 19,0 C 18,9 C 18,9 C 70 % 1019,8 hPa 0,0 l/m 0 min 0 min 249 W/m 12,9 km/h (3 Bft) 97,87 %
14.07.2019 15:26 19,0 C 19,4 C 18,9 C 71 % 1019,7 hPa 0,0 l/m 0 min 0 min 266 W/m 6,4 km/h (2 Bft) 100,00 %
14.07.2019 15:28 19,0 C 19,4 C 18,9 C 71 % 1019,7 hPa 0,0 l/m 0 min 0 min 271 W/m 6,4 km/h (2 Bft) 100,00 %
14.07.2019 15:30 19,0 C 19,4 C 18,9 C 71 % 1019,7 hPa 0,0 l/m 0 min 0 min 268 W/m 6,4 km/h (2 Bft) 100,00 %
14.07.2019 15:32 19,0 C 20,0 C 19,4 C 72 % 1019,8 hPa 0,0 l/m 0 min 0 min 283 W/m 9,7 km/h (2 Bft) 97,87 %
14.07.2019 15:34 19,0 C 20,0 C 19,4 C 72 % 1019,7 hPa 0,0 l/m 0 min 0 min 307 W/m 9,7 km/h (2 Bft) 100,00 %
14.07.2019 15:36 19,1 C 20,6 C 19,4 C 73 % 1019,7 hPa 0,0 l/m 0 min 0 min 328 W/m 6,4 km/h (2 Bft) 97,67 %
14.07.2019 15:38 19,1 C 20,6 C 19,4 C 72 % 1019,8 hPa 0,0 l/m 0 min 0 min 345 W/m 6,4 km/h (2 Bft) 96,00 %
14.07.2019 15:40 19,1 C 20,6 C 19,4 C 72 % 1019,7 hPa 0,0 l/m 0 min 0 min 345 W/m 6,4 km/h (2 Bft) 97,83 %
14.07.2019 15:42 19,2 C 20,6 C 19,4 C 73 % 1019,7 hPa 0,0 l/m 0 min 0 min 336 W/m 9,7 km/h (2 Bft) 97,92 %
14.07.2019 15:44 19,2 C 20,6 C 19,4 C 72 % 1019,7 hPa 0,0 l/m 0 min 0 min 321 W/m 12,9 km/h (3 Bft) 97,87 %
14.07.2019 15:46 19,2 C 20,6 C 19,4 C 71 % 1019,7 hPa 0,0 l/m 0 min 0 min 272 W/m 12,9 km/h (3 Bft) 97,67 %
14.07.2019 15:48 19,2 C 20,6 C 19,4 C 71 % 1019,7 hPa 0,0 l/m 0 min 0 min 242 W/m 6,4 km/h (2 Bft) 96,00 %
14.07.2019 15:50 19,2 C 20,6 C 18,9 C 71 % 1019,7 hPa 0,0 l/m 0 min 0 min 207 W/m 6,4 km/h (2 Bft) 97,87 %
14.07.2019 15:52 19,3 C 20,0 C 18,9 C 71 % 1019,7 hPa 0,0 l/m 0 min 0 min 166 W/m 6,4 km/h (2 Bft) 97,92 %
14.07.2019 15:54 19,2 C 19,4 C 18,3 C 70 % 1019,7 hPa 0,0 l/m 0 min 0 min 140 W/m 16,1 km/h (3 Bft) 97,87 %
14.07.2019 15:56 19,2 C 18,9 C 18,3 C 71 % 1019,7 hPa 0,0 l/m 0 min 0 min 134 W/m 9,7 km/h (2 Bft) 97,62 %
14.07.2019 15:58 19,2 C 18,9 C 18,3 C 71 % 1019,7 hPa 0,0 l/m 0 min 0 min 125 W/m 6,4 km/h (2 Bft) 95,74 %
14.07.2019 16:00 19,1 C 18,9 C 17,8 C 71 % 1019,7 hPa 0,0 l/m 0 min 0 min 109 W/m 9,7 km/h (2 Bft) 98,00 %
14.07.2019 16:02 19,1 C 18,3 C 17,8 C 71 % 1019,7 hPa 0,0 l/m 0 min 0 min 110 W/m 16,1 km/h (3 Bft) 95,83 %
14.07.2019 16:04 19,0 C 18,3 C 17,8 C 70 % 1019,7 hPa 0,0 l/m 0 min 0 min 130 W/m 12,9 km/h (3 Bft) 97,87 %
14.07.2019 16:06 18,9 C 18,3 C 17,8 C 70 % 1019,7 hPa 0,0 l/m 0 min 0 min 164 W/m 12,9 km/h (3 Bft) 97,62 %
14.07.2019 16:08 18,9 C 18,3 C 17,8 C 71 % 1019,6 hPa 0,0 l/m 0 min 0 min 197 W/m 9,7 km/h (2 Bft) 95,74 %
14.07.2019 16:10 18,9 C 18,9 C 18,3 C 73 % 1019,7 hPa 0,0 l/m 0 min 0 min 241 W/m 6,4 km/h (2 Bft) 98,00 %
14.07.2019 16:12 18,8 C 19,4 C 18,3 C 72 % 1019,6 hPa 0,0 l/m 0 min 0 min 288 W/m 9,7 km/h (2 Bft) 97,92 %
14.07.2019 16:14 18,9 C 20,0 C 18,9 C 73 % 1019,6 hPa 0,0 l/m 0 min 0 min 329 W/m 3,2 km/h (1 Bft) 97,87 %
14.07.2019 16:16 18,9 C 20,6 C 18,9 C 74 % 1019,6 hPa 0,0 l/m 0 min 0 min 333 W/m 6,4 km/h (2 Bft) 97,87 %
14.07.2019 16:18 18,9 C 21,1 C 18,9 C 74 % 1019,6 hPa 0,0 l/m 0 min 0 min 326 W/m 3,2 km/h (1 Bft) 97,62 %
14.07.2019 16:20 19,0 C 21,1 C 19,4 C 74 % 1019,6 hPa 0,0 l/m 0 min 0 min 297 W/m 6,4 km/h (2 Bft) 96,00 %
14.07.2019 16:22 19,1 C 21,1 C 19,4 C 73 % 1019,6 hPa 0,0 l/m 0 min 0 min 285 W/m 6,4 km/h (2 Bft) 95,74 %
14.07.2019 16:24 19,1 C 21,1 C 19,4 C 73 % 1019,6 hPa 0,0 l/m 0 min 0 min 275 W/m 16,1 km/h (3 Bft) 97,87 %
14.07.2019 16:26 19,2 C 21,1 C 19,4 C 72 % 1019,6 hPa 0,0 l/m 0 min 0 min 242 W/m 6,4 km/h (2 Bft) 100,00 %
14.07.2019 16:28 19,2 C 20,6 C 19,4 C 73 % 1019,6 hPa 0,0 l/m 0 min 0 min 201 W/m 9,7 km/h (2 Bft) 100,00 %
14.07.2019 16:30 19,2 C 20,0 C 18,9 C 72 % 1019,6 hPa 0,0 l/m 0 min 0 min 161 W/m 9,7 km/h (2 Bft) 97,87 %
14.07.2019 16:32 19,2 C 19,4 C 18,9 C 72 % 1019,7 hPa 0,0 l/m 0 min 0 min 140 W/m 6,4 km/h (2 Bft) 100,00 %
14.07.2019 16:34 19,2 C 19,4 C 18,3 C 72 % 1019,6 hPa 0,0 l/m 0 min 0 min 126 W/m 6,4 km/h (2 Bft) 97,83 %
14.07.2019 16:36 19,2 C 18,9 C 18,3 C 73 % 1019,6 hPa 0,0 l/m 0 min 0 min 117 W/m 12,9 km/h (3 Bft) 100,00 %
14.07.2019 16:38 19,2 C 18,9 C 18,3 C 72 % 1019,5 hPa 0,0 l/m 0 min 0 min 118 W/m 6,4 km/h (2 Bft) 100,00 %
14.07.2019 16:40 19,1 C 18,9 C 17,8 C 73 % 1019,6 hPa 0,0 l/m 0 min 0 min 109 W/m 3,2 km/h (1 Bft) 97,87 %
14.07.2019 16:42 19,1 C 18,3 C 17,8 C 73 % 1019,6 hPa 0,0 l/m 0 min 0 min 98 W/m 9,7 km/h (2 Bft) 100,00 %
14.07.2019 16:44 19,1 C 18,3 C 17,8 C 73 % 1019,5 hPa 0,0 l/m 0 min 0 min 94 W/m 3,2 km/h (1 Bft) 100,00 %
14.07.2019 16:46 19,0 C 18,3 C 17,8 C 73 % 1019,6 hPa 0,0 l/m 0 min 0 min 89 W/m 9,7 km/h (2 Bft) 100,00 %
14.07.2019 16:48 18,9 C 18,3 C 17,8 C 73 % 1019,6 hPa 0,0 l/m 0 min 0 min 85 W/m 3,2 km/h (1 Bft) 100,00 %
14.07.2019 16:50 18,9 C 17,8 C 17,2 C 73 % 1019,6 hPa 0,0 l/m 0 min 0 min 81 W/m 9,7 km/h (2 Bft) 97,87 %
14.07.2019 16:52 18,9 C 17,8 C 17,2 C 73 % 1019,6 hPa 0,0 l/m 0 min 0 min 77 W/m 9,7 km/h (2 Bft) 100,00 %
14.07.2019 16:54 18,8 C 17,8 C 17,2 C 73 % 1019,6 hPa 0,0 l/m 0 min 0 min 78 W/m 6,4 km/h (2 Bft) 100,00 %
14.07.2019 16:56 18,8 C 17,8 C 17,2 C 74 % 1019,5 hPa 0,0 l/m 0 min 0 min 85 W/m 3,2 km/h (1 Bft) 100,00 %
14.07.2019 16:58 18,7 C 17,8 C 17,8 C 74 % 1019,6 hPa 0,0 l/m 0 min 0 min 98 W/m 3,2 km/h (1 Bft) 100,00 %
14.07.2019 17:00 18,7 C 17,8 C 17,8 C 74 % 1019,6 hPa 0,0 l/m 0 min 0 min 106 W/m 6,4 km/h (2 Bft) 100,00 %
14.07.2019 17:02 18,7 C 18,3 C 17,8 C 74 % 1019,6 hPa 0,0 l/m 0 min 0 min 107 W/m 6,4 km/h (2 Bft) 100,00 %
14.07.2019 17:04 18,6 C 18,3 C 17,8 C 74 % 1019,6 hPa 0,0 l/m 0 min 0 min 102 W/m 6,4 km/h (2 Bft) 100,00 %
14.07.2019 17:06 18,6 C 18,3 C 17,8 C 74 % 1019,6 hPa 0,0 l/m 0 min 0 min 102 W/m 6,4 km/h (2 Bft) 100,00 %
14.07.2019 17:08 18,6 C 18,3 C 17,8 C 74 % 1019,6 hPa 0,0 l/m 0 min 0 min 121 W/m 3,2 km/h (1 Bft) 95,74 %
14.07.2019 17:10 18,6 C 18,3 C 17,8 C 75 % 1019,5 hPa 0,0 l/m 0 min 0 min 156 W/m 9,7 km/h (2 Bft) 100,00 %
14.07.2019 17:12 18,6 C 18,9 C 18,3 C 75 % 1019,5 hPa 0,0 l/m 0 min 0 min 191 W/m 3,2 km/h (1 Bft) 97,83 %
14.07.2019 17:14 18,6 C 19,4 C 18,3 C 75 % 1019,5 hPa 0,0 l/m 0 min 0 min 216 W/m 9,7 km/h (2 Bft) 100,00 %
14.07.2019 17:16 18,6 C 19,4 C 18,9 C 75 % 1019,5 hPa 0,0 l/m 0 min 0 min 232 W/m 9,7 km/h (2 Bft) 95,74 %
14.07.2019 17:18 18,6 C 19,4 C 18,9 C 75 % 1019,5 hPa 0,0 l/m 0 min 0 min 245 W/m 9,7 km/h (2 Bft) 97,87 %
14.07.2019 17:20 18,7 C 19,4 C 18,9 C 75 % 1019,5 hPa 0,0 l/m 0 min 0 min 249 W/m 9,7 km/h (2 Bft) 97,87 %
14.07.2019 17:22 18,7 C 20,0 C 18,9 C 74 % 1019,5 hPa 0,0 l/m 0 min 0 min 246 W/m 9,7 km/h (2 Bft) 97,87 %
14.07.2019 17:24 18,7 C 20,0 C 19,4 C 74 % 1019,5 hPa 0,0 l/m 0 min 0 min 250 W/m 9,7 km/h (2 Bft) 97,83 %
14.07.2019 17:26 18,8 C 20,0 C 19,4 C 74 % 1019,4 hPa 0,0 l/m 0 min 0 min 252 W/m 9,7 km/h (2 Bft) 97,87 %
14.07.2019 17:28 18,8 C 20,0 C 19,4 C 74 % 1019,4 hPa 0,0 l/m 0 min 0 min 244 W/m 6,4 km/h (2 Bft) 91,49 %
14.07.2019 17:30 18,9 C 20,6 C 19,4 C 75 % 1019,4 hPa 0,0 l/m 0 min 0 min 233 W/m 3,2 km/h (1 Bft) 97,87 %
14.07.2019 17:32 18,9 C 20,6 C 19,4 C 75 % 1019,4 hPa 0,0 l/m 0 min 0 min 224 W/m 6,4 km/h (2 Bft) 97,87 %
14.07.2019 17:34 19,0 C 20,6 C 19,4 C 75 % 1019,5 hPa 0,0 l/m 0 min 0 min 211 W/m 9,7 km/h (2 Bft) 95,74 %
14.07.2019 17:36 19,1 C 20,0 C 19,4 C 74 % 1019,4 hPa 0,0 l/m 0 min 0 min 199 W/m 6,4 km/h (2 Bft) 93,48 %
14.07.2019 17:38 19,1 C 20,0 C 18,9 C 74 % 1019,4 hPa 0,0 l/m 0 min 0 min 179 W/m 3,2 km/h (1 Bft) 98,11 %
14.07.2019 17:40 19,1 C 20,0 C 18,9 C 74 % 1019,4 hPa 0,0 l/m 0 min 0 min 160 W/m 6,4 km/h (2 Bft) 97,87 %
14.07.2019 17:42 19,1 C 19,4 C 18,9 C 74 % 1019,4 hPa 0,0 l/m 0 min 0 min 143 W/m 6,4 km/h (2 Bft) 93,62 %
14.07.2019 17:44 19,1 C 19,4 C 18,9 C 73 % 1019,4 hPa 0,0 l/m 0 min 0 min 131 W/m 12,9 km/h (3 Bft) 95,74 %
14.07.2019 17:46 19,1 C 19,4 C 18,3 C 73 % 1019,3 hPa 0,0 l/m 0 min 0 min 129 W/m 6,4 km/h (2 Bft) 95,12 %
14.07.2019 17:48 19,1 C 18,9 C 18,3 C 73 % 1019,3 hPa 0,0 l/m 0 min 0 min 140 W/m 9,7 km/h (2 Bft) 97,87 %
14.07.2019 17:50 19,1 C 18,9 C 18,3 C 73 % 1019,4 hPa 0,0 l/m 0 min 0 min 160 W/m 9,7 km/h (2 Bft) 97,92 %
14.07.2019 17:52 19,1 C 19,4 C 18,3 C 73 % 1019,4 hPa 0,0 l/m 0 min 0 min 190 W/m 3,2 km/h (1 Bft) 95,74 %
14.07.2019 17:54 19,1 C 19,4 C 18,9 C 74 % 1019,3 hPa 0,0 l/m 0 min 0 min 198 W/m 3,2 km/h (1 Bft) 95,74 %
14.07.2019 17:56 19,1 C 19,4 C 18,9 C 74 % 1019,3 hPa 0,0 l/m 0 min 0 min 190 W/m 12,9 km/h (3 Bft) 97,87 %
14.07.2019 17:58 19,1 C 19,4 C 18,9 C 73 % 1019,3 hPa 0,0 l/m 0 min 0 min 174 W/m 19,3 km/h (3 Bft) 95,65 %
14.07.2019 18:00 19,1 C 19,4 C 18,9 C 73 % 1019,3 hPa 0,0 l/m 0 min 0 min 156 W/m 9,7 km/h (2 Bft) 97,87 %
14.07.2019 18:02 19,1 C 19,4 C 18,9 C 74 % 1019,3 hPa 0,0 l/m 0 min 0 min 136 W/m 6,4 km/h (2 Bft) 97,87 %
14.07.2019 18:04 19,1 C 18,9 C 18,3 C 73 % 1019,4 hPa 0,0 l/m 0 min 0 min 117 W/m 9,7 km/h (2 Bft) 97,87 %
14.07.2019 18:08 19,1 C 18,9 C 18,3 C 73 % 1019,3 hPa 0,0 l/m 0 min 0 min 99 W/m 16,1 km/h (3 Bft) 95,70 %
14.07.2019 18:10 19,1 C 18,9 C 18,3 C 73 % 1019,4 hPa 0,0 l/m 0 min 0 min 83 W/m 9,7 km/h (2 Bft) 97,87 %
14.07.2019 18:12 19,0 C 18,3 C 17,8 C 73 % 1019,3 hPa 0,0 l/m 0 min 0 min 73 W/m 6,4 km/h (2 Bft) 97,87 %
14.07.2019 18:14 18,9 C 18,3 C 17,8 C 73 % 1019,3 hPa 0,0 l/m 0 min 0 min 70 W/m 6,4 km/h (2 Bft) 97,87 %
14.07.2019 18:16 18,9 C 18,3 C 17,8 C 74 % 1019,3 hPa 0,0 l/m 0 min 0 min 68 W/m 12,9 km/h (3 Bft) 95,74 %
14.07.2019 18:18 18,9 C 18,3 C 17,8 C 74 % 1019,2 hPa 0,0 l/m 0 min 0 min 65 W/m 6,4 km/h (2 Bft) 97,87 %
14.07.2019 18:20 18,8 C 18,3 C 17,8 C 74 % 1019,2 hPa 0,0 l/m 0 min 0 min 68 W/m 3,2 km/h (1 Bft) 97,83 %
14.07.2019 18:22 18,8 C 18,3 C 17,8 C 74 % 1019,2 hPa 0,0 l/m 0 min 0 min 73 W/m 3,2 km/h (1 Bft) 95,83 %
14.07.2019 18:24 18,8 C 18,3 C 17,8 C 74 % 1019,2 hPa 0,0 l/m 0 min 0 min 80 W/m 3,2 km/h (1 Bft) 97,87 %
14.07.2019 18:26 18,8 C 18,3 C 17,8 C 75 % 1019,2 hPa 0,0 l/m 0 min 0 min 87 W/m 3,2 km/h (1 Bft) 97,87 %
14.07.2019 18:28 18,7 C 18,3 C 17,8 C 75 % 1019,2 hPa 0,0 l/m 0 min 0 min 94 W/m 6,4 km/h (2 Bft) 97,87 %
14.07.2019 18:30 18,7 C 18,3 C 17,8 C 75 % 1019,2 hPa 0,0 l/m 0 min 0 min 102 W/m 6,4 km/h (2 Bft) 97,92 %
14.07.2019 18:32 18,7 C 18,3 C 17,8 C 75 % 1019,2 hPa 0,0 l/m 0 min 0 min 112 W/m 9,7 km/h (2 Bft) 97,83 %
14.07.2019 18:34 18,7 C 18,3 C 17,8 C 74 % 1019,1 hPa 0,0 l/m 0 min 0 min 125 W/m 12,9 km/h (3 Bft) 97,87 %
14.07.2019 18:36 18,7 C 18,9 C 17,8 C 74 % 1019,2 hPa 0,0 l/m 0 min 0 min 139 W/m 9,7 km/h (2 Bft) 95,74 %
14.07.2019 18:38 18,7 C 18,9 C 18,3 C 74 % 1019,1 hPa 0,0 l/m 0 min 0 min 154 W/m 6,4 km/h (2 Bft) 97,92 %
14.07.2019 18:40 18,7 C 18,9 C 18,3 C 74 % 1019,2 hPa 0,0 l/m 0 min 0 min 168 W/m 9,7 km/h (2 Bft) 97,87 %
14.07.2019 18:42 18,7 C 19,4 C 18,3 C 75 % 1019,2 hPa 0,0 l/m 0 min 0 min 173 W/m 6,4 km/h (2 Bft) 95,74 %
14.07.2019 18:44 18,7 C 18,9 C 18,3 C 75 % 1019,2 hPa 0,0 l/m 0 min 0 min 188 W/m 12,9 km/h (3 Bft) 95,65 %
14.07.2019 18:46 18,8 C 19,4 C 18,3 C 75 % 1019,2 hPa 0,0 l/m 0 min 0 min 178 W/m 6,4 km/h (2 Bft) 95,74 %
14.07.2019 18:48 18,8 C 18,9 C 18,3 C 74 % 1019,1 hPa 0,0 l/m 0 min 0 min 166 W/m 16,1 km/h (3 Bft) 95,74 %
14.07.2019 18:50 18,8 C 19,4 C 18,3 C 74 % 1019,2 hPa 0,0 l/m 0 min 0 min 148 W/m 6,4 km/h (2 Bft) 95,74 %
14.07.2019 18:52 18,8 C 18,9 C 18,3 C 74 % 1019,2 hPa 0,0 l/m 0 min 0 min 131 W/m 3,2 km/h (1 Bft) 95,83 %
14.07.2019 18:54 18,8 C 18,9 C 18,3 C 74 % 1019,2 hPa 0,0 l/m 0 min 0 min 109 W/m 0,0 km/h (0 Bft) 97,83 %
14.07.2019 18:56 18,8 C 18,9 C 18,3 C 74 % 1019,2 hPa 0,0 l/m 0 min 0 min 88 W/m 6,4 km/h (2 Bft) 97,87 %
14.07.2019 18:58 18,8 C 18,9 C 18,3 C 74 % 1019,2 hPa 0,0 l/m 0 min 0 min 71 W/m 6,4 km/h (2 Bft) 97,87 %
14.07.2019 19:00 18,9 C 18,3 C 17,8 C 75 % 1019,3 hPa 0,0 l/m 0 min 0 min 54 W/m 9,7 km/h (2 Bft) 97,87 %
14.07.2019 19:02 18,9 C 18,3 C 17,8 C 75 % 1019,3 hPa 0,0 l/m 0 min 0 min 42 W/m 3,2 km/h (1 Bft) 95,74 %
14.07.2019 19:04 18,8 C 18,3 C 17,8 C 75 % 1019,2 hPa 0,0 l/m 0 min 0 min 33 W/m 6,4 km/h (2 Bft) 97,87 %
14.07.2019 19:06 18,8 C 17,8 C 17,2 C 75 % 1019,2 hPa 0,0 l/m 0 min 0 min 30 W/m 9,7 km/h (2 Bft) 97,83 %
14.07.2019 19:08 18,8 C 17,8 C 17,2 C 74 % 1019,3 hPa 0,0 l/m 0 min 0 min 27 W/m 6,4 km/h (2 Bft) 97,87 %
14.07.2019 19:10 18,8 C 17,8 C 17,2 C 75 % 1019,3 hPa 0,0 l/m 0 min 0 min 26 W/m 6,4 km/h (2 Bft) 97,87 %
14.07.2019 19:12 18,7 C 17,8 C 17,2 C 75 % 1019,3 hPa 0,0 l/m 0 min 0 min 26 W/m 6,4 km/h (2 Bft) 97,87 %
14.07.2019 19:14 18,7 C 17,2 C 17,2 C 74 % 1019,2 hPa 0,0 l/m 0 min 0 min 27 W/m 9,7 km/h (2 Bft) 97,87 %
14.07.2019 19:16 18,6 C 17,2 C 17,2 C 74 % 1019,3 hPa 0,0 l/m 0 min 0 min 28 W/m 12,9 km/h (3 Bft) 97,87 %
14.07.2019 19:18 18,6 C 17,2 C 17,2 C 74 % 1019,4 hPa 0,0 l/m 0 min 0 min 32 W/m 3,2 km/h (1 Bft) 97,87 %
14.07.2019 19:20 18,6 C 17,2 C 17,2 C 75 % 1019,4 hPa 0,0 l/m 0 min 0 min 33 W/m 6,4 km/h (2 Bft) 95,65 %
14.07.2019 19:22 18,5 C 17,2 C 17,2 C 75 % 1019,3 hPa 0,0 l/m 0 min 0 min 34 W/m 9,7 km/h (2 Bft) 97,87 %
14.07.2019 19:24 18,5 C 17,2 C 17,2 C 75 % 1019,4 hPa 0,0 l/m 0 min 0 min 35 W/m 6,4 km/h (2 Bft) 97,87 %
14.07.2019 19:26 18,4 C 17,2 C 17,2 C 75 % 1019,4 hPa 0,0 l/m 0 min 0 min 37 W/m 6,4 km/h (2 Bft) 95,74 %
14.07.2019 19:28 18,4 C 17,2 C 17,2 C 76 % 1019,3 hPa 0,0 l/m 0 min 0 min 40 W/m 3,2 km/h (1 Bft) 95,74 %
14.07.2019 19:30 18,4 C 17,2 C 17,2 C 76 % 1019,3 hPa 0,0 l/m 0 min 0 min 44 W/m 3,2 km/h (1 Bft) 97,87 %
14.07.2019 19:32 18,4 C 17,2 C 17,2 C 75 % 1019,3 hPa 0,0 l/m 0 min 0 min 48 W/m 6,4 km/h (2 Bft) 97,83 %
14.07.2019 19:34 18,3 C 17,2 C 17,2 C 75 % 1019,4 hPa 0,0 l/m 0 min 0 min 53 W/m 9,7 km/h (2 Bft) 95,74 %
14.07.2019 19:36 18,3 C 17,8 C 17,2 C 75 % 1019,4 hPa 0,0 l/m 0 min 0 min 56 W/m 6,4 km/h (2 Bft) 95,74 %
14.07.2019 19:38 18,3 C 17,8 C 17,2 C 75 % 1019,4 hPa 0,0 l/m 0 min 0 min 60 W/m 9,7 km/h (2 Bft) 100,00 %
14.07.2019 19:40 18,3 C 17,8 C 17,2 C 76 % 1019,4 hPa 0,0 l/m 0 min 0 min 65 W/m 3,2 km/h (1 Bft) 100,00 %
14.07.2019 19:42 18,3 C 17,8 C 17,2 C 76 % 1019,4 hPa 0,0 l/m 0 min 0 min 69 W/m 12,9 km/h (3 Bft) 100,00 %
14.07.2019 19:44 18,3 C 17,8 C 17,2 C 76 % 1019,4 hPa 0,0 l/m 0 min 0 min 73 W/m 9,7 km/h (2 Bft) 100,00 %
14.07.2019 19:46 18,3 C 17,8 C 17,2 C 75 % 1019,4 hPa 0,0 l/m 0 min 0 min 79 W/m 6,4 km/h (2 Bft) 97,87 %
14.07.2019 19:48 18,3 C 17,8 C 17,2 C 75 % 1019,3 hPa 0,0 l/m 0 min 0 min 84 W/m 6,4 km/h (2 Bft) 97,87 %
14.07.2019 19:50 18,3 C 18,3 C 17,8 C 76 % 1019,4 hPa 0,0 l/m 0 min 0 min 86 W/m 3,2 km/h (1 Bft) 95,74 %
14.07.2019 19:52 18,3 C 18,3 C 17,8 C 76 % 1019,4 hPa 0,0 l/m 0 min 0 min 81 W/m 3,2 km/h (1 Bft) 97,87 %
14.07.2019 19:53 18,3 C 18,3 C 17,8 C 76 % 1019,4 hPa 0,0 l/m 0 min 0 min 77 W/m 3,2 km/h (1 Bft) 95,74 %
14.07.2019 19:56 18,3 C 18,3 C 17,8 C 76 % 1019,4 hPa 0,0 l/m 0 min 0 min 72 W/m 6,4 km/h (2 Bft) 95,92 %
14.07.2019 19:58 18,3 C 17,8 C 17,8 C 76 % 1019,3 hPa 0,0 l/m 0 min 0 min 69 W/m 6,4 km/h (2 Bft) 95,74 %
14.07.2019 20:00 18,3 C 17,8 C 17,8 C 76 % 1019,4 hPa 0,0 l/m 0 min 0 min 64 W/m 6,4 km/h (2 Bft) 95,74 %
14.07.2019 20:02 18,3 C 17,8 C 17,8 C 76 % 1019,4 hPa 0,0 l/m 0 min 0 min 60 W/m 6,4 km/h (2 Bft) 97,87 %
14.07.2019 20:04 18,3 C 17,8 C 17,2 C 75 % 1019,3 hPa 0,0 l/m 0 min 0 min 56 W/m 6,4 km/h (2 Bft) 97,87 %
14.07.2019 20:06 18,3 C 17,8 C 17,2 C 75 % 1019,3 hPa 0,0 l/m 0 min 0 min 54 W/m 3,2 km/h (1 Bft) 97,83 %
14.07.2019 20:08 18,3 C 17,8 C 17,2 C 75 % 1019,3 hPa 0,0 l/m 0 min 0 min 52 W/m 9,7 km/h (2 Bft) 97,87 %
14.07.2019 20:10 18,3 C 17,8 C 17,2 C 75 % 1019,4 hPa 0,0 l/m 0 min 0 min 51 W/m 6,4 km/h (2 Bft) 97,87 %
14.07.2019 20:12 18,3 C 17,8 C 17,2 C 75 % 1019,4 hPa 0,0 l/m 0 min 0 min 51 W/m 0,0 km/h (0 Bft) 97,87 %
14.07.2019 20:14 18,3 C 17,8 C 17,2 C 75 % 1019,4 hPa 0,0 l/m 0 min 0 min 49 W/m 6,4 km/h (2 Bft) 97,87 %
14.07.2019 20:16 18,3 C 17,8 C 17,2 C 75 % 1019,4 hPa 0,0 l/m 0 min 0 min 43 W/m 6,4 km/h (2 Bft) 95,74 %
14.07.2019 20:18 18,3 C 17,8 C 17,2 C 76 % 1019,4 hPa 0,0 l/m 0 min 0 min 38 W/m 3,2 km/h (1 Bft) 95,65 %
14.07.2019 20:20 18,3 C 17,8 C 17,2 C 76 % 1019,3 hPa 0,0 l/m 0 min 0 min 33 W/m 9,7 km/h (2 Bft) 97,87 %
14.07.2019 20:22 18,3 C 17,2 C 17,2 C 75 % 1019,2 hPa 0,0 l/m 0 min 0 min 29 W/m 3,2 km/h (1 Bft) 97,87 %
14.07.2019 20:24 18,2 C 17,2 C 17,2 C 75 % 1019,3 hPa 0,0 l/m 0 min 0 min 24 W/m 3,2 km/h (1 Bft) 95,74 %
14.07.2019 20:26 18,2 C 17,2 C 17,2 C 76 % 1019,3 hPa 0,0 l/m 0 min 0 min 19 W/m 3,2 km/h (1 Bft) 97,87 %
14.07.2019 20:28 18,2 C 17,2 C 16,7 C 75 % 1019,3 hPa 0,0 l/m 0 min 0 min 16 W/m 6,4 km/h (2 Bft) 97,87 %
14.07.2019 20:30 18,2 C 17,2 C 16,7 C 76 % 1019,3 hPa 0,0 l/m 0 min 0 min 13 W/m 9,7 km/h (2 Bft) 97,83 %
14.07.2019 20:32 18,2 C 17,2 C 16,7 C 75 % 1019,4 hPa 0,0 l/m 0 min 0 min 11 W/m 6,4 km/h (2 Bft) 93,62 %
14.07.2019 20:34 18,2 C 17,2 C 16,7 C 76 % 1019,3 hPa 0,0 l/m 0 min 0 min 9 W/m 6,4 km/h (2 Bft) 95,74 %
14.07.2019 20:36 18,1 C 17,2 C 16,7 C 76 % 1019,4 hPa 0,0 l/m 0 min 0 min 7 W/m 12,9 km/h (3 Bft) 97,87 %
14.07.2019 20:38 18,1 C 16,7 C 16,7 C 76 % 1019,3 hPa 0,0 l/m 0 min 0 min 7 W/m 9,7 km/h (2 Bft) 97,87 %
14.07.2019 20:40 18,1 C 16,7 C 16,7 C 76 % 1019,3 hPa 0,0 l/m 0 min 0 min 7 W/m 6,4 km/h (2 Bft) 95,65 %
14.07.2019 20:42 18,1 C 16,7 C 16,7 C 77 % 1019,4 hPa 0,0 l/m 0 min 0 min 7 W/m 9,7 km/h (2 Bft) 100,00 %
14.07.2019 20:44 18,0 C 16,7 C 16,7 C 77 % 1019,4 hPa 0,0 l/m 0 min 0 min 8 W/m 6,4 km/h (2 Bft) 100,00 %
14.07.2019 20:46 18,0 C 16,7 C 16,7 C 77 % 1019,4 hPa 0,0 l/m 0 min 0 min 9 W/m 3,2 km/h (1 Bft) 97,87 %
14.07.2019 20:48 18,0 C 16,7 C 16,7 C 77 % 1019,4 hPa 0,0 l/m 0 min 0 min 9 W/m 3,2 km/h (1 Bft) 97,87 %
14.07.2019 20:50 17,9 C 16,7 C 16,7 C 77 % 1019,4 hPa 0,0 l/m 0 min 0 min 9 W/m 6,4 km/h (2 Bft) 97,87 %
14.07.2019 20:52 17,9 C 16,7 C 16,7 C 78 % 1019,4 hPa 0,0 l/m 0 min 0 min 9 W/m 6,4 km/h (2 Bft) 100,00 %
14.07.2019 20:54 17,9 C 16,7 C 16,7 C 78 % 1019,4 hPa 0,0 l/m 0 min 0 min 9 W/m 6,4 km/h (2 Bft) 100,00 %
14.07.2019 20:56 17,9 C 16,7 C 16,7 C 78 % 1019,4 hPa 0,0 l/m 0 min 0 min 9 W/m 6,4 km/h (2 Bft) 97,87 %
14.07.2019 20:58 17,8 C 16,7 C 16,7 C 78 % 1019,4 hPa 0,0 l/m 0 min 0 min 9 W/m 6,4 km/h (2 Bft) 97,87 %
14.07.2019 21:00 17,8 C 16,7 C 16,7 C 78 % 1019,4 hPa 0,0 l/m 0 min 0 min 9 W/m 9,7 km/h (2 Bft) 97,87 %
14.07.2019 21:02 17,8 C 16,7 C 16,1 C 78 % 1019,5 hPa 0,0 l/m 0 min 0 min 8 W/m 16,1 km/h (3 Bft) 100,00 %
14.07.2019 21:04 17,7 C 16,7 C 16,1 C 78 % 1019,5 hPa 0,0 l/m 0 min 0 min 7 W/m 6,4 km/h (2 Bft) 100,00 %
14.07.2019 21:06 17,7 C 16,7 C 16,1 C 78 % 1019,5 hPa 0,0 l/m 0 min 0 min 7 W/m 6,4 km/h (2 Bft) 97,87 %
14.07.2019 21:08 17,7 C 16,7 C 16,1 C 78 % 1019,5 hPa 0,0 l/m 0 min 0 min 7 W/m 6,4 km/h (2 Bft) 97,87 %
14.07.2019 21:10 17,7 C 16,7 C 16,1 C 78 % 1019,5 hPa 0,0 l/m 0 min 0 min 7 W/m 9,7 km/h (2 Bft) 97,87 %
14.07.2019 21:12 17,7 C 16,7 C 16,1 C 78 % 1019,4 hPa 0,0 l/m 0 min 0 min 7 W/m 16,1 km/h (3 Bft) 97,87 %
14.07.2019 21:14 17,6 C 16,7 C 16,1 C 78 % 1019,5 hPa 0,0 l/m 0 min 0 min 7 W/m 9,7 km/h (2 Bft) 97,87 %
14.07.2019 21:16 17,6 C 16,7 C 16,1 C 78 % 1019,5 hPa 0,0 l/m 0 min 0 min 7 W/m 12,9 km/h (3 Bft) 97,83 %
14.07.2019 21:18 17,6 C 16,7 C 16,1 C 78 % 1019,5 hPa 0,0 l/m 0 min 0 min 6 W/m 12,9 km/h (3 Bft) 93,62 %
14.07.2019 21:20 17,6 C 16,7 C 16,1 C 78 % 1019,4 hPa 0,0 l/m 0 min 0 min 5 W/m 6,4 km/h (2 Bft) 97,87 %
14.07.2019 21:22 17,5 C 16,7 C 16,1 C 78 % 1019,5 hPa 0,0 l/m 0 min 0 min 5 W/m 9,7 km/h (2 Bft) 97,87 %
14.07.2019 21:24 17,5 C 16,1 C 16,1 C 78 % 1019,5 hPa 0,0 l/m 0 min 0 min 5 W/m 9,7 km/h (2 Bft) 97,87 %
14.07.2019 21:26 17,4 C 16,1 C 16,1 C 78 % 1019,5 hPa 0,0 l/m 0 min 0 min 5 W/m 6,4 km/h (2 Bft) 97,83 %
14.07.2019 21:28 17,4 C 16,1 C 16,1 C 78 % 1019,5 hPa 0,0 l/m 0 min 0 min 1 W/m 12,9 km/h (3 Bft) 97,87 %
14.07.2019 21:30 17,4 C 16,1 C 16,1 C 78 % 1019,6 hPa 0,0 l/m 0 min 0 min 0 W/m 9,7 km/h (2 Bft) 97,87 %
14.07.2019 21:32 17,4 C 16,1 C 16,1 C 78 % 1019,5 hPa 0,0 l/m 0 min 0 min 0 W/m 6,4 km/h (2 Bft) 95,74 %
14.07.2019 21:34 17,4 C 16,1 C 16,1 C 79 % 1019,6 hPa 0,0 l/m 0 min 0 min 0 W/m 3,2 km/h (1 Bft) 97,87 %
14.07.2019 21:36 17,3 C 16,1 C 16,1 C 79 % 1019,6 hPa 0,0 l/m 0 min 0 min 0 W/m 3,2 km/h (1 Bft) 97,87 %
14.07.2019 21:38 17,3 C 16,1 C 16,1 C 79 % 1019,5 hPa 0,0 l/m 0 min 0 min 0 W/m 3,2 km/h (1 Bft) 95,65 %
14.07.2019 21:40 17,3 C 16,1 C 16,1 C 79 % 1019,6 hPa 0,0 l/m 0 min 0 min 0 W/m 9,7 km/h (2 Bft) 97,87 %
14.07.2019 21:42 17,3 C 16,1 C 16,1 C 79 % 1019,6 hPa 0,0 l/m 0 min 0 min 0 W/m 6,4 km/h (2 Bft) 97,87 %
14.07.2019 21:44 17,3 C 16,1 C 16,1 C 79 % 1019,6 hPa 0,0 l/m 0 min 0 min 0 W/m 3,2 km/h (1 Bft) 95,74 %
14.07.2019 21:46 17,3 C 16,1 C 16,1 C 79 % 1019,6 hPa 0,0 l/m 0 min 0 min 0 W/m 6,4 km/h (2 Bft) 97,87 %
14.07.2019 21:48 17,2 C 16,1 C 15,6 C 79 % 1019,6 hPa 0,0 l/m 0 min 0 min 0 W/m 3,2 km/h (1 Bft) 93,62 %
14.07.2019 21:50 17,2 C 16,1 C 15,6 C 79 % 1019,6 hPa 0,0 l/m 0 min 0 min 0 W/m 9,7 km/h (2 Bft) 97,83 %
14.07.2019 21:52 17,2 C 16,1 C 15,6 C 79 % 1019,6 hPa 0,0 l/m 0 min 0 min 0 W/m 9,7 km/h (2 Bft) 97,87 %
14.07.2019 21:54 17,2 C 16,1 C 15,6 C 79 % 1019,6 hPa 0,0 l/m 0 min 0 min 0 W/m 6,4 km/h (2 Bft) 97,87 %
14.07.2019 21:56 17,2 C 16,1 C 15,6 C 79 % 1019,6 hPa 0,0 l/m 0 min 0 min 0 W/m 3,2 km/h (1 Bft) 100,00 %
14.07.2019 21:58 17,1 C 16,1 C 15,6 C 79 % 1019,6 hPa 0,0 l/m 0 min 0 min 0 W/m 0,0 km/h (0 Bft) 100,00 %
14.07.2019 22:00 17,1 C 16,1 C 15,6 C 80 % 1019,6 hPa 0,0 l/m 0 min 0 min 0 W/m 6,4 km/h (2 Bft) 100,00 %
14.07.2019 22:02 17,1 C 16,1 C 15,6 C 80 % 1019,6 hPa 0,0 l/m 0 min 0 min 0 W/m 9,7 km/h (2 Bft) 100,00 %
14.07.2019 22:04 17,1 C 16,1 C 15,6 C 80 % 1019,6 hPa 0,0 l/m 0 min 0 min 0 W/m 6,4 km/h (2 Bft) 100,00 %
14.07.2019 22:06 17,1 C 15,6 C 15,6 C 80 % 1019,7 hPa 0,0 l/m 0 min 0 min 0 W/m 3,2 km/h (1 Bft) 100,00 %
14.07.2019 22:08 17,1 C 15,6 C 15,6 C 80 % 1019,7 hPa 0,0 l/m 0 min 0 min 0 W/m 3,2 km/h (1 Bft) 100,00 %
14.07.2019 22:10 17,1 C 15,6 C 15,6 C 80 % 1019,6 hPa 0,0 l/m 0 min 0 min 0 W/m 3,2 km/h (1 Bft) 95,74 %
14.07.2019 22:12 17,0 C 15,6 C 15,6 C 80 % 1019,7 hPa 0,0 l/m 0 min 0 min 0 W/m 3,2 km/h (1 Bft) 97,87 %
14.07.2019 22:14 17,0 C 15,6 C 15,6 C 80 % 1019,6 hPa 0,0 l/m 0 min 0 min 0 W/m 0,0 km/h (0 Bft) 97,83 %
14.07.2019 22:16 17,0 C 15,6 C 15,6 C 80 % 1019,7 hPa 0,0 l/m 0 min 0 min 0 W/m 3,2 km/h (1 Bft) 95,74 %
14.07.2019 22:18 16,9 C 15,6 C 15,6 C 81 % 1019,7 hPa 0,0 l/m 0 min 0 min 0 W/m 3,2 km/h (1 Bft) 97,87 %
14.07.2019 22:20 16,9 C 15,6 C 15,6 C 81 % 1019,7 hPa 0,0 l/m 0 min 0 min 0 W/m 0,0 km/h (0 Bft) 97,87 %
14.07.2019 22:22 16,9 C 15,6 C 15,6 C 81 % 1019,7 hPa 0,0 l/m 0 min 0 min 0 W/m 0,0 km/h (0 Bft) 97,87 %
14.07.2019 22:24 16,9 C 15,6 C 15,6 C 80 % 1019,7 hPa 0,0 l/m 0 min 0 min 0 W/m 0,0 km/h (0 Bft) 97,87 %
14.07.2019 22:26 16,9 C 15,6 C 15,6 C 81 % 1019,7 hPa 0,0 l/m 0 min 0 min 0 W/m 0,0 km/h (0 Bft) 97,83 %
14.07.2019 22:28 16,9 C 15,6 C 15,6 C 80 % 1019,7 hPa 0,0 l/m 0 min 0 min 0 W/m 0,0 km/h (0 Bft) 93,62 %
14.07.2019 22:30 16,9 C 15,6 C 15,6 C 81 % 1019,7 hPa 0,0 l/m 0 min 0 min 0 W/m 0,0 km/h (0 Bft) 97,87 %
14.07.2019 22:32 16,9 C 15,6 C 15,6 C 81 % 1019,7 hPa 0,0 l/m 0 min 0 min 0 W/m 0,0 km/h (0 Bft) 97,87 %
14.07.2019 22:34 16,8 C 15,6 C 15,6 C 81 % 1019,7 hPa 0,0 l/m 0 min 0 min 0 W/m 0,0 km/h (0 Bft) 95,74 %
14.07.2019 22:36 16,8 C 15,6 C 15,6 C 81 % 1019,7 hPa 0,0 l/m 0 min 0 min 0 W/m 3,2 km/h (1 Bft) 97,83 %
14.07.2019 22:38 16,8 C 15,6 C 15,6 C 81 % 1019,8 hPa 0,0 l/m 0 min 0 min 0 W/m 3,2 km/h (1 Bft) 97,87 %
14.07.2019 22:40 16,8 C 15,6 C 15,6 C 81 % 1019,8 hPa 0,0 l/m 0 min 0 min 0 W/m 6,4 km/h (2 Bft) 93,62 %
14.07.2019 22:42 16,8 C 15,6 C 15,6 C 81 % 1019,8 hPa 0,0 l/m 0 min 0 min 0 W/m 16,1 km/h (3 Bft) 93,62 %
14.07.2019 22:44 16,8 C 15,6 C 15,6 C 81 % 1019,8 hPa 0,0 l/m 0 min 0 min 0 W/m 6,4 km/h (2 Bft) 93,62 %
14.07.2019 22:46 16,7 C 15,6 C 15,6 C 81 % 1019,8 hPa 0,0 l/m 0 min 0 min 0 W/m 6,4 km/h (2 Bft) 95,74 %
14.07.2019 22:48 16,7 C 15,6 C 15,6 C 81 % 1019,7 hPa 0,0 l/m 0 min 0 min 0 W/m 6,4 km/h (2 Bft) 95,65 %
14.07.2019 22:50 16,7 C 15,6 C 15,6 C 81 % 1019,7 hPa 0,0 l/m 0 min 0 min 0 W/m 9,7 km/h (2 Bft) 93,62 %
14.07.2019 22:52 16,7 C 15,6 C 15,6 C 81 % 1019,8 hPa 0,0 l/m 0 min 0 min 0 W/m 6,4 km/h (2 Bft) 95,74 %
14.07.2019 22:54 16,7 C 15,6 C 15,6 C 81 % 1019,8 hPa 0,0 l/m 0 min 0 min 0 W/m 6,4 km/h (2 Bft) 93,62 %
14.07.2019 22:56 16,7 C 15,6 C 15,6 C 81 % 1019,7 hPa 0,0 l/m 0 min 0 min 0 W/m 0,0 km/h (0 Bft) 95,74 %
14.07.2019 22:58 16,6 C 15,6 C 15,6 C 81 % 1019,8 hPa 0,0 l/m 0 min 0 min 0 W/m 9,7 km/h (2 Bft) 95,74 %
14.07.2019 23:00 16,6 C 15,6 C 15,6 C 81 % 1019,8 hPa 0,0 l/m 0 min 0 min 0 W/m 9,7 km/h (2 Bft) 95,65 %
14.07.2019 23:02 16,6 C 15,6 C 15,0 C 81 % 1019,8 hPa 0,0 l/m 0 min 0 min 0 W/m 3,2 km/h (1 Bft) 93,62 %
14.07.2019 23:04 16,6 C 15,6 C 15,0 C 81 % 1019,8 hPa 0,0 l/m 0 min 0 min 0 W/m 6,4 km/h (2 Bft) 95,74 %
14.07.2019 23:06 16,6 C 15,6 C 15,0 C 81 % 1019,7 hPa 0,0 l/m 0 min 0 min 0 W/m 6,4 km/h (2 Bft) 95,74 %
14.07.2019 23:08 16,6 C 15,6 C 15,6 C 81 % 1019,8 hPa 0,0 l/m 0 min 0 min 0 W/m 6,4 km/h (2 Bft) 95,74 %
14.07.2019 23:10 16,5 C 15,6 C 15,6 C 81 % 1019,8 hPa 0,0 l/m 0 min 0 min 0 W/m 9,7 km/h (2 Bft) 93,62 %
14.07.2019 23:12 16,5 C 15,6 C 15,6 C 81 % 1019,8 hPa 0,0 l/m 0 min 0 min 0 W/m 3,2 km/h (1 Bft) 97,83 %
14.07.2019 23:14 16,5 C 15,6 C 15,6 C 81 % 1019,8 hPa 0,0 l/m 0 min 0 min 0 W/m 12,9 km/h (3 Bft) 97,87 %
14.07.2019 23:16 16,5 C 15,6 C 15,6 C 81 % 1019,8 hPa 0,0 l/m 0 min 0 min 0 W/m 9,7 km/h (2 Bft) 97,87 %
14.07.2019 23:18 16,5 C 15,6 C 15,6 C 81 % 1019,9 hPa 0,0 l/m 0 min 0 min 0 W/m 19,3 km/h (3 Bft) 95,74 %
14.07.2019 23:20 16,4 C 15,6 C 15,6 C 81 % 1019,8 hPa 0,0 l/m 0 min 0 min 0 W/m 6,4 km/h (2 Bft) 97,87 %
14.07.2019 23:22 16,4 C 15,6 C 15,6 C 81 % 1019,8 hPa 0,0 l/m 0 min 0 min 0 W/m 6,4 km/h (2 Bft) 97,87 %
14.07.2019 23:24 16,4 C 15,6 C 15,6 C 81 % 1019,8 hPa 0,0 l/m 0 min 0 min 0 W/m 6,4 km/h (2 Bft) 97,83 %
14.07.2019 23:26 16,4 C 15,6 C 15,0 C 81 % 1019,7 hPa 0,0 l/m 0 min 0 min 0 W/m 9,7 km/h (2 Bft) 100,00 %
14.07.2019 23:28 16,4 C 15,6 C 15,0 C 81 % 1019,8 hPa 0,0 l/m 0 min 0 min 0 W/m 9,7 km/h (2 Bft) 95,74 %
14.07.2019 23:30 16,4 C 15,6 C 15,0 C 81 % 1019,9 hPa 0,0 l/m 0 min 0 min 0 W/m 6,4 km/h (2 Bft) 95,74 %
14.07.2019 23:32 16,4 C 15,6 C 15,0 C 81 % 1019,8 hPa 0,0 l/m 0 min 0 min 0 W/m 9,7 km/h (2 Bft) 100,00 %
14.07.2019 23:34 16,4 C 15,6 C 15,0 C 81 % 1019,9 hPa 0,0 l/m 0 min 0 min 0 W/m 9,7 km/h (2 Bft) 100,00 %
14.07.2019 23:36 16,4 C 15,6 C 15,0 C 81 % 1019,8 hPa 0,0 l/m 0 min 0 min 0 W/m 6,4 km/h (2 Bft) 100,00 %
14.07.2019 23:38 16,4 C 15,6 C 15,0 C 81 % 1019,9 hPa 0,0 l/m 0 min 0 min 0 W/m 3,2 km/h (1 Bft) 100,00 %
14.07.2019 23:40 16,4 C 15,6 C 15,0 C 81 % 1019,9 hPa 0,0 l/m 0 min 0 min 0 W/m 6,4 km/h (2 Bft) 95,74 %
14.07.2019 23:42 16,3 C 15,6 C 15,0 C 81 % 1019,9 hPa 0,0 l/m 0 min 0 min 0 W/m 3,2 km/h (1 Bft) 100,00 %
14.07.2019 23:44 16,3 C 15,6 C 15,0 C 81 % 1019,9 hPa 0,0 l/m 0 min 0 min 0 W/m 9,7 km/h (2 Bft) 97,87 %
14.07.2019 23:46 16,3 C 15,6 C 15,0 C 81 % 1019,9 hPa 0,0 l/m 0 min 0 min 0 W/m 6,4 km/h (2 Bft) 100,00 %
14.07.2019 23:48 16,3 C 15,6 C 15,0 C 81 % 1019,9 hPa 0,0 l/m 0 min 0 min 0 W/m 6,4 km/h (2 Bft) 100,00 %
14.07.2019 23:50 16,3 C 15,6 C 15,0 C 81 % 1020,0 hPa 0,0 l/m 0 min 0 min 0 W/m 9,7 km/h (2 Bft) 100,00 %
14.07.2019 23:52 16,3 C 15,6 C 15,0 C 81 % 1020,0 hPa 0,0 l/m 0 min 0 min 0 W/m 6,4 km/h (2 Bft) 100,00 %
14.07.2019 23:54 16,2 C 15,6 C 15,0 C 81 % 1020,0 hPa 0,0 l/m 0 min 0 min 0 W/m 6,4 km/h (2 Bft) 97,87 %
14.07.2019 23:56 16,2 C 15,6 C 15,0 C 81 % 1020,0 hPa 0,0 l/m 0 min 0 min 0 W/m 6,4 km/h (2 Bft) 100,00 %
14.07.2019 23:58 16,2 C 15,0 C 15,0 C 81 % 1020,1 hPa 0,0 l/m 0 min 0 min 0 W/m 3,2 km/h (1 Bft) 100,00 %
_ Min-Zeit 05:52 05:22 05:18 13:58 18:34 - - - - 01:02 01:48
Minimum _ 13,5 C 12,2 C 12,2 C 67 % 1019,1 hPa - - - - 0,0 km/h (0 Bft) 89,36 %
_ Max-Zeit 13:52 13:08 13:08 01:00 11:30 00:00 13:08 00:00 13:48 13:12 00:20
Maximum _ 19,3 C 22,8 C 21,1 C 89 % 1020,3 hPa 0,0 l/m 4 min 0 min 532 W/m 25,7 km/h
W-SW (4 Bft)
100,00 %
Durchschnitt _ 16,7 C 16,7 C 16,1 C 78 % 1019,7 hPa #0,0 l/m #18 min. #0 min. 161 W/m 7,5 km/h (2 Bft) 97,51 %
© 2019 W. Hausmann